<?xml version="1.0" encoding="UTF-8" standalone="no" ?>
<gpx xmlns="http://www.topografix.com/GPX/1/1" xmlns:xsi="http://www.w3.org/2001/XMLSchema-instance" xsi:schemaLocation="http://www.topografix.com/GPX/1/1 http://www.topografix.com/GPX/1/1/gpx.xsd" version="1.1" creator="VisuGPX - https://www.visugpx.com">
  <metadata>
    <name>La Ronde du Chardon</name>
    <desc><![CDATA[Parcours du trail "La Ronde du Chardon" à Mongiscard (11 km)]]></desc>
  </metadata>
  <trk>
    <name><![CDATA[Move]]></name>
    <trkseg>
      <trkpt lat="43.45773" lon="1.5748">
        <ele>195</ele>
        <time>2016-04-10T07:32:26.000Z</time>
      </trkpt>
      <trkpt lat="43.4578" lon="1.57471">
        <ele>195</ele>
        <time>2016-04-10T07:32:31.000Z</time>
      </trkpt>
      <trkpt lat="43.45788" lon="1.57461">
        <ele>194</ele>
        <time>2016-04-10T07:32:34.000Z</time>
      </trkpt>
      <trkpt lat="43.458" lon="1.57463">
        <ele>194</ele>
        <time>2016-04-10T07:32:39.000Z</time>
      </trkpt>
      <trkpt lat="43.45808" lon="1.57473">
        <ele>194</ele>
        <time>2016-04-10T07:32:41.000Z</time>
      </trkpt>
      <trkpt lat="43.45815" lon="1.57482">
        <ele>194</ele>
        <time>2016-04-10T07:32:43.000Z</time>
      </trkpt>
      <trkpt lat="43.45822" lon="1.5749">
        <ele>194</ele>
        <time>2016-04-10T07:32:45.000Z</time>
      </trkpt>
      <trkpt lat="43.45829" lon="1.57498">
        <ele>194</ele>
        <time>2016-04-10T07:32:47.000Z</time>
      </trkpt>
      <trkpt lat="43.45835" lon="1.57507">
        <ele>194</ele>
        <time>2016-04-10T07:32:49.000Z</time>
      </trkpt>
      <trkpt lat="43.45841" lon="1.57514">
        <ele>194</ele>
        <time>2016-04-10T07:32:51.000Z</time>
      </trkpt>
      <trkpt lat="43.45851" lon="1.57521">
        <ele>191</ele>
        <time>2016-04-10T07:32:54.000Z</time>
      </trkpt>
      <trkpt lat="43.45861" lon="1.57516">
        <ele>190.45999948799</ele>
        <time>2016-04-10T07:32:57.000Z</time>
      </trkpt>
      <trkpt lat="43.4587" lon="1.57504">
        <ele>190</ele>
        <time>2016-04-10T07:33:00.000Z</time>
      </trkpt>
      <trkpt lat="43.45874" lon="1.57494">
        <ele>189</ele>
        <time>2016-04-10T07:33:02.000Z</time>
      </trkpt>
      <trkpt lat="43.45878" lon="1.57485">
        <ele>189</ele>
        <time>2016-04-10T07:33:04.000Z</time>
      </trkpt>
      <trkpt lat="43.45883" lon="1.57475">
        <ele>189</ele>
        <time>2016-04-10T07:33:06.000Z</time>
      </trkpt>
      <trkpt lat="43.45887" lon="1.57466">
        <ele>189</ele>
        <time>2016-04-10T07:33:08.000Z</time>
      </trkpt>
      <trkpt lat="43.45894" lon="1.57452">
        <ele>189</ele>
        <time>2016-04-10T07:33:11.000Z</time>
      </trkpt>
      <trkpt lat="43.45899" lon="1.57444">
        <ele>189</ele>
        <time>2016-04-10T07:33:13.000Z</time>
      </trkpt>
      <trkpt lat="43.45905" lon="1.57433">
        <ele>189.53999948801</ele>
        <time>2016-04-10T07:33:16.000Z</time>
      </trkpt>
      <trkpt lat="43.4591" lon="1.57425">
        <ele>190</ele>
        <time>2016-04-10T07:33:18.000Z</time>
      </trkpt>
      <trkpt lat="43.45915" lon="1.57417">
        <ele>190</ele>
        <time>2016-04-10T07:33:20.000Z</time>
      </trkpt>
      <trkpt lat="43.4592" lon="1.57408">
        <ele>190</ele>
        <time>2016-04-10T07:33:22.000Z</time>
      </trkpt>
      <trkpt lat="43.45924" lon="1.57399">
        <ele>190</ele>
        <time>2016-04-10T07:33:24.000Z</time>
      </trkpt>
      <trkpt lat="43.45929" lon="1.57389">
        <ele>190</ele>
        <time>2016-04-10T07:33:26.000Z</time>
      </trkpt>
      <trkpt lat="43.45934" lon="1.5738">
        <ele>190</ele>
        <time>2016-04-10T07:33:28.000Z</time>
      </trkpt>
      <trkpt lat="43.45939" lon="1.57371">
        <ele>190</ele>
        <time>2016-04-10T07:33:30.000Z</time>
      </trkpt>
      <trkpt lat="43.45944" lon="1.57362">
        <ele>190</ele>
        <time>2016-04-10T07:33:32.000Z</time>
      </trkpt>
      <trkpt lat="43.4595" lon="1.57352">
        <ele>190</ele>
        <time>2016-04-10T07:33:34.000Z</time>
      </trkpt>
      <trkpt lat="43.45955" lon="1.57342">
        <ele>188.93069055977</ele>
        <time>2016-04-10T07:33:36.000Z</time>
      </trkpt>
      <trkpt lat="43.4596" lon="1.57332">
        <ele>188</ele>
        <time>2016-04-10T07:33:38.000Z</time>
      </trkpt>
      <trkpt lat="43.45965" lon="1.57317">
        <ele>188</ele>
        <time>2016-04-10T07:33:41.000Z</time>
      </trkpt>
      <trkpt lat="43.45966" lon="1.57306">
        <ele>188</ele>
        <time>2016-04-10T07:33:43.000Z</time>
      </trkpt>
      <trkpt lat="43.45965" lon="1.57291">
        <ele>188</ele>
        <time>2016-04-10T07:33:46.000Z</time>
      </trkpt>
      <trkpt lat="43.45959" lon="1.57277">
        <ele>188</ele>
        <time>2016-04-10T07:33:49.000Z</time>
      </trkpt>
      <trkpt lat="43.45953" lon="1.57264">
        <ele>188</ele>
        <time>2016-04-10T07:33:52.000Z</time>
      </trkpt>
      <trkpt lat="43.45947" lon="1.57257">
        <ele>188</ele>
        <time>2016-04-10T07:33:54.000Z</time>
      </trkpt>
      <trkpt lat="43.45937" lon="1.57254">
        <ele>189</ele>
        <time>2016-04-10T07:33:58.000Z</time>
      </trkpt>
      <trkpt lat="43.45927" lon="1.57264">
        <ele>189.53535549436</ele>
        <time>2016-04-10T07:34:01.000Z</time>
      </trkpt>
      <trkpt lat="43.45918" lon="1.57273">
        <ele>190</ele>
        <time>2016-04-10T07:34:04.000Z</time>
      </trkpt>
      <trkpt lat="43.4591" lon="1.57282">
        <ele>190</ele>
        <time>2016-04-10T07:34:07.000Z</time>
      </trkpt>
      <trkpt lat="43.45901" lon="1.57292">
        <ele>190</ele>
        <time>2016-04-10T07:34:10.000Z</time>
      </trkpt>
      <trkpt lat="43.45894" lon="1.57301">
        <ele>192</ele>
        <time>2016-04-10T07:34:13.000Z</time>
      </trkpt>
      <trkpt lat="43.45885" lon="1.57311">
        <ele>193.07999897601</ele>
        <time>2016-04-10T07:34:16.000Z</time>
      </trkpt>
      <trkpt lat="43.45877" lon="1.5732">
        <ele>194</ele>
        <time>2016-04-10T07:34:19.000Z</time>
      </trkpt>
      <trkpt lat="43.45869" lon="1.57329">
        <ele>195</ele>
        <time>2016-04-10T07:34:22.000Z</time>
      </trkpt>
      <trkpt lat="43.45861" lon="1.5734">
        <ele>195</ele>
        <time>2016-04-10T07:34:25.000Z</time>
      </trkpt>
      <trkpt lat="43.45853" lon="1.57349">
        <ele>195</ele>
        <time>2016-04-10T07:34:28.000Z</time>
      </trkpt>
      <trkpt lat="43.45845" lon="1.57358">
        <ele>195.53535549436</ele>
        <time>2016-04-10T07:34:31.000Z</time>
      </trkpt>
      <trkpt lat="43.45836" lon="1.57367">
        <ele>196</ele>
        <time>2016-04-10T07:34:34.000Z</time>
      </trkpt>
      <trkpt lat="43.45827" lon="1.57376">
        <ele>196</ele>
        <time>2016-04-10T07:34:37.000Z</time>
      </trkpt>
      <trkpt lat="43.45818" lon="1.57386">
        <ele>196</ele>
        <time>2016-04-10T07:34:40.000Z</time>
      </trkpt>
      <trkpt lat="43.45809" lon="1.57394">
        <ele>197</ele>
        <time>2016-04-10T07:34:43.000Z</time>
      </trkpt>
      <trkpt lat="43.458" lon="1.57405">
        <ele>197</ele>
        <time>2016-04-10T07:34:46.000Z</time>
      </trkpt>
      <trkpt lat="43.45791" lon="1.57416">
        <ele>197</ele>
        <time>2016-04-10T07:34:49.000Z</time>
      </trkpt>
      <trkpt lat="43.45783" lon="1.57427">
        <ele>197</ele>
        <time>2016-04-10T07:34:52.000Z</time>
      </trkpt>
      <trkpt lat="43.45774" lon="1.57438">
        <ele>197</ele>
        <time>2016-04-10T07:34:55.000Z</time>
      </trkpt>
      <trkpt lat="43.45764" lon="1.57448">
        <ele>197</ele>
        <time>2016-04-10T07:34:58.000Z</time>
      </trkpt>
      <trkpt lat="43.45755" lon="1.57458">
        <ele>195.92928901129</ele>
        <time>2016-04-10T07:35:01.000Z</time>
      </trkpt>
      <trkpt lat="43.45746" lon="1.5746">
        <ele>195</ele>
        <time>2016-04-10T07:35:03.000Z</time>
      </trkpt>
      <trkpt lat="43.45733" lon="1.5746">
        <ele>195</ele>
        <time>2016-04-10T07:35:05.000Z</time>
      </trkpt>
      <trkpt lat="43.45722" lon="1.57451">
        <ele>195</ele>
        <time>2016-04-10T07:35:08.000Z</time>
      </trkpt>
      <trkpt lat="43.45717" lon="1.57433">
        <ele>195</ele>
        <time>2016-04-10T07:35:11.000Z</time>
      </trkpt>
      <trkpt lat="43.4571" lon="1.5742">
        <ele>195</ele>
        <time>2016-04-10T07:35:14.000Z</time>
      </trkpt>
      <trkpt lat="43.45702" lon="1.5741">
        <ele>195</ele>
        <time>2016-04-10T07:35:17.000Z</time>
      </trkpt>
      <trkpt lat="43.45696" lon="1.57403">
        <ele>195</ele>
        <time>2016-04-10T07:35:19.000Z</time>
      </trkpt>
      <trkpt lat="43.45687" lon="1.57393">
        <ele>197</ele>
        <time>2016-04-10T07:35:22.000Z</time>
      </trkpt>
      <trkpt lat="43.45679" lon="1.57383">
        <ele>197</ele>
        <time>2016-04-10T07:35:25.000Z</time>
      </trkpt>
      <trkpt lat="43.4567" lon="1.57374">
        <ele>197</ele>
        <time>2016-04-10T07:35:28.000Z</time>
      </trkpt>
      <trkpt lat="43.45662" lon="1.57364">
        <ele>197.53535549436</ele>
        <time>2016-04-10T07:35:31.000Z</time>
      </trkpt>
      <trkpt lat="43.45656" lon="1.57357">
        <ele>198</ele>
        <time>2016-04-10T07:35:33.000Z</time>
      </trkpt>
      <trkpt lat="43.4565" lon="1.5735">
        <ele>198</ele>
        <time>2016-04-10T07:35:35.000Z</time>
      </trkpt>
      <trkpt lat="43.45646" lon="1.5734">
        <ele>198</ele>
        <time>2016-04-10T07:35:37.000Z</time>
      </trkpt>
      <trkpt lat="43.45649" lon="1.57327">
        <ele>198</ele>
        <time>2016-04-10T07:35:39.000Z</time>
      </trkpt>
      <trkpt lat="43.45656" lon="1.57315">
        <ele>199.08000102401</ele>
        <time>2016-04-10T07:35:41.000Z</time>
      </trkpt>
      <trkpt lat="43.45662" lon="1.57306">
        <ele>200</ele>
        <time>2016-04-10T07:35:43.000Z</time>
      </trkpt>
      <trkpt lat="43.45668" lon="1.57296">
        <ele>200</ele>
        <time>2016-04-10T07:35:45.000Z</time>
      </trkpt>
      <trkpt lat="43.45673" lon="1.57288">
        <ele>200</ele>
        <time>2016-04-10T07:35:47.000Z</time>
      </trkpt>
      <trkpt lat="43.45679" lon="1.5728">
        <ele>200</ele>
        <time>2016-04-10T07:35:49.000Z</time>
      </trkpt>
      <trkpt lat="43.45684" lon="1.57272">
        <ele>200</ele>
        <time>2016-04-10T07:35:51.000Z</time>
      </trkpt>
      <trkpt lat="43.45688" lon="1.57263">
        <ele>200</ele>
        <time>2016-04-10T07:35:53.000Z</time>
      </trkpt>
      <trkpt lat="43.45691" lon="1.57252">
        <ele>200</ele>
        <time>2016-04-10T07:35:55.000Z</time>
      </trkpt>
      <trkpt lat="43.45694" lon="1.57241">
        <ele>200</ele>
        <time>2016-04-10T07:35:57.000Z</time>
      </trkpt>
      <trkpt lat="43.45697" lon="1.57231">
        <ele>200</ele>
        <time>2016-04-10T07:35:59.000Z</time>
      </trkpt>
      <trkpt lat="43.45701" lon="1.5722">
        <ele>198.92928901129</ele>
        <time>2016-04-10T07:36:01.000Z</time>
      </trkpt>
      <trkpt lat="43.45704" lon="1.5721">
        <ele>198</ele>
        <time>2016-04-10T07:36:03.000Z</time>
      </trkpt>
      <trkpt lat="43.45709" lon="1.57199">
        <ele>198</ele>
        <time>2016-04-10T07:36:05.000Z</time>
      </trkpt>
      <trkpt lat="43.45715" lon="1.5719">
        <ele>198</ele>
        <time>2016-04-10T07:36:07.000Z</time>
      </trkpt>
      <trkpt lat="43.4572" lon="1.5718">
        <ele>198</ele>
        <time>2016-04-10T07:36:09.000Z</time>
      </trkpt>
      <trkpt lat="43.45725" lon="1.5717">
        <ele>196.37999846398</ele>
        <time>2016-04-10T07:36:11.000Z</time>
      </trkpt>
      <trkpt lat="43.4573" lon="1.5716">
        <ele>195</ele>
        <time>2016-04-10T07:36:13.000Z</time>
      </trkpt>
      <trkpt lat="43.45735" lon="1.57149">
        <ele>195</ele>
        <time>2016-04-10T07:36:15.000Z</time>
      </trkpt>
      <trkpt lat="43.4574" lon="1.5714">
        <ele>193</ele>
        <time>2016-04-10T07:36:17.000Z</time>
      </trkpt>
      <trkpt lat="43.45746" lon="1.57131">
        <ele>193</ele>
        <time>2016-04-10T07:36:19.000Z</time>
      </trkpt>
      <trkpt lat="43.45751" lon="1.57122">
        <ele>192.45999948799</ele>
        <time>2016-04-10T07:36:21.000Z</time>
      </trkpt>
      <trkpt lat="43.45758" lon="1.57113">
        <ele>192</ele>
        <time>2016-04-10T07:36:23.000Z</time>
      </trkpt>
      <trkpt lat="43.45764" lon="1.57105">
        <ele>192</ele>
        <time>2016-04-10T07:36:25.000Z</time>
      </trkpt>
      <trkpt lat="43.45771" lon="1.57097">
        <ele>191</ele>
        <time>2016-04-10T07:36:27.000Z</time>
      </trkpt>
      <trkpt lat="43.45778" lon="1.5709">
        <ele>191</ele>
        <time>2016-04-10T07:36:29.000Z</time>
      </trkpt>
      <trkpt lat="43.45785" lon="1.57084">
        <ele>191.53535549436</ele>
        <time>2016-04-10T07:36:31.000Z</time>
      </trkpt>
      <trkpt lat="43.45791" lon="1.57077">
        <ele>192</ele>
        <time>2016-04-10T07:36:33.000Z</time>
      </trkpt>
      <trkpt lat="43.45798" lon="1.57067">
        <ele>192</ele>
        <time>2016-04-10T07:36:36.000Z</time>
      </trkpt>
      <trkpt lat="43.458" lon="1.57053">
        <ele>192</ele>
        <time>2016-04-10T07:36:39.000Z</time>
      </trkpt>
      <trkpt lat="43.45798" lon="1.57038">
        <ele>191</ele>
        <time>2016-04-10T07:36:42.000Z</time>
      </trkpt>
      <trkpt lat="43.45795" lon="1.57022">
        <ele>191</ele>
        <time>2016-04-10T07:36:45.000Z</time>
      </trkpt>
      <trkpt lat="43.45795" lon="1.57006">
        <ele>191</ele>
        <time>2016-04-10T07:36:48.000Z</time>
      </trkpt>
      <trkpt lat="43.45797" lon="1.5699">
        <ele>191</ele>
        <time>2016-04-10T07:36:51.000Z</time>
      </trkpt>
      <trkpt lat="43.458" lon="1.56976">
        <ele>191</ele>
        <time>2016-04-10T07:36:54.000Z</time>
      </trkpt>
      <trkpt lat="43.45803" lon="1.56966">
        <ele>191</ele>
        <time>2016-04-10T07:36:56.000Z</time>
      </trkpt>
      <trkpt lat="43.45805" lon="1.56956">
        <ele>191</ele>
        <time>2016-04-10T07:36:58.000Z</time>
      </trkpt>
      <trkpt lat="43.45808" lon="1.56946">
        <ele>191</ele>
        <time>2016-04-10T07:37:00.000Z</time>
      </trkpt>
      <trkpt lat="43.45811" lon="1.56936">
        <ele>193</ele>
        <time>2016-04-10T07:37:02.000Z</time>
      </trkpt>
      <trkpt lat="43.45814" lon="1.56925">
        <ele>193</ele>
        <time>2016-04-10T07:37:04.000Z</time>
      </trkpt>
      <trkpt lat="43.45816" lon="1.56915">
        <ele>193</ele>
        <time>2016-04-10T07:37:06.000Z</time>
      </trkpt>
      <trkpt lat="43.45818" lon="1.56905">
        <ele>193</ele>
        <time>2016-04-10T07:37:08.000Z</time>
      </trkpt>
      <trkpt lat="43.45822" lon="1.56889">
        <ele>193.54000051201</ele>
        <time>2016-04-10T07:37:11.000Z</time>
      </trkpt>
      <trkpt lat="43.45826" lon="1.56879">
        <ele>194</ele>
        <time>2016-04-10T07:37:13.000Z</time>
      </trkpt>
      <trkpt lat="43.4583" lon="1.56869">
        <ele>194</ele>
        <time>2016-04-10T07:37:15.000Z</time>
      </trkpt>
      <trkpt lat="43.45834" lon="1.56859">
        <ele>194</ele>
        <time>2016-04-10T07:37:17.000Z</time>
      </trkpt>
      <trkpt lat="43.45838" lon="1.56844">
        <ele>194</ele>
        <time>2016-04-10T07:37:20.000Z</time>
      </trkpt>
      <trkpt lat="43.45843" lon="1.56828">
        <ele>194</ele>
        <time>2016-04-10T07:37:23.000Z</time>
      </trkpt>
      <trkpt lat="43.45847" lon="1.56817">
        <ele>194</ele>
        <time>2016-04-10T07:37:25.000Z</time>
      </trkpt>
      <trkpt lat="43.45851" lon="1.56802">
        <ele>194</ele>
        <time>2016-04-10T07:37:28.000Z</time>
      </trkpt>
      <trkpt lat="43.45856" lon="1.56787">
        <ele>193.46464450564</ele>
        <time>2016-04-10T07:37:31.000Z</time>
      </trkpt>
      <trkpt lat="43.45861" lon="1.56771">
        <ele>193</ele>
        <time>2016-04-10T07:37:34.000Z</time>
      </trkpt>
      <trkpt lat="43.45865" lon="1.56761">
        <ele>193</ele>
        <time>2016-04-10T07:37:36.000Z</time>
      </trkpt>
      <trkpt lat="43.4587" lon="1.56747">
        <ele>193</ele>
        <time>2016-04-10T07:37:39.000Z</time>
      </trkpt>
      <trkpt lat="43.45875" lon="1.56732">
        <ele>192</ele>
        <time>2016-04-10T07:37:42.000Z</time>
      </trkpt>
      <trkpt lat="43.45878" lon="1.56721">
        <ele>192</ele>
        <time>2016-04-10T07:37:44.000Z</time>
      </trkpt>
      <trkpt lat="43.45881" lon="1.56711">
        <ele>192</ele>
        <time>2016-04-10T07:37:46.000Z</time>
      </trkpt>
      <trkpt lat="43.45885" lon="1.56701">
        <ele>192</ele>
        <time>2016-04-10T07:37:48.000Z</time>
      </trkpt>
      <trkpt lat="43.45889" lon="1.5669">
        <ele>192</ele>
        <time>2016-04-10T07:37:50.000Z</time>
      </trkpt>
      <trkpt lat="43.45892" lon="1.5668">
        <ele>193</ele>
        <time>2016-04-10T07:37:52.000Z</time>
      </trkpt>
      <trkpt lat="43.45895" lon="1.5667">
        <ele>193</ele>
        <time>2016-04-10T07:37:54.000Z</time>
      </trkpt>
      <trkpt lat="43.45897" lon="1.5666">
        <ele>193</ele>
        <time>2016-04-10T07:37:56.000Z</time>
      </trkpt>
      <trkpt lat="43.45899" lon="1.56645">
        <ele>193</ele>
        <time>2016-04-10T07:37:59.000Z</time>
      </trkpt>
      <trkpt lat="43.45896" lon="1.56632">
        <ele>193</ele>
        <time>2016-04-10T07:38:02.000Z</time>
      </trkpt>
      <trkpt lat="43.45893" lon="1.56623">
        <ele>193</ele>
        <time>2016-04-10T07:38:04.000Z</time>
      </trkpt>
      <trkpt lat="43.4589" lon="1.56613">
        <ele>193</ele>
        <time>2016-04-10T07:38:06.000Z</time>
      </trkpt>
      <trkpt lat="43.45887" lon="1.56603">
        <ele>193</ele>
        <time>2016-04-10T07:38:08.000Z</time>
      </trkpt>
      <trkpt lat="43.45883" lon="1.56593">
        <ele>193</ele>
        <time>2016-04-10T07:38:10.000Z</time>
      </trkpt>
      <trkpt lat="43.45879" lon="1.56584">
        <ele>193</ele>
        <time>2016-04-10T07:38:12.000Z</time>
      </trkpt>
      <trkpt lat="43.45875" lon="1.56574">
        <ele>193</ele>
        <time>2016-04-10T07:38:14.000Z</time>
      </trkpt>
      <trkpt lat="43.45872" lon="1.56565">
        <ele>193</ele>
        <time>2016-04-10T07:38:16.000Z</time>
      </trkpt>
      <trkpt lat="43.45868" lon="1.56556">
        <ele>193</ele>
        <time>2016-04-10T07:38:18.000Z</time>
      </trkpt>
      <trkpt lat="43.45864" lon="1.56547">
        <ele>193</ele>
        <time>2016-04-10T07:38:20.000Z</time>
      </trkpt>
      <trkpt lat="43.4586" lon="1.56538">
        <ele>194</ele>
        <time>2016-04-10T07:38:22.000Z</time>
      </trkpt>
      <trkpt lat="43.45857" lon="1.56524">
        <ele>194</ele>
        <time>2016-04-10T07:38:25.000Z</time>
      </trkpt>
      <trkpt lat="43.45865" lon="1.56507">
        <ele>194</ele>
        <time>2016-04-10T07:38:28.000Z</time>
      </trkpt>
      <trkpt lat="43.45874" lon="1.56495">
        <ele>194.53535549436</ele>
        <time>2016-04-10T07:38:31.000Z</time>
      </trkpt>
      <trkpt lat="43.45879" lon="1.56487">
        <ele>195</ele>
        <time>2016-04-10T07:38:33.000Z</time>
      </trkpt>
      <trkpt lat="43.45887" lon="1.5648">
        <ele>195</ele>
        <time>2016-04-10T07:38:35.000Z</time>
      </trkpt>
      <trkpt lat="43.45893" lon="1.56474">
        <ele>195</ele>
        <time>2016-04-10T07:38:37.000Z</time>
      </trkpt>
      <trkpt lat="43.45899" lon="1.56468">
        <ele>195</ele>
        <time>2016-04-10T07:38:39.000Z</time>
      </trkpt>
      <trkpt lat="43.45909" lon="1.56458">
        <ele>196</ele>
        <time>2016-04-10T07:38:42.000Z</time>
      </trkpt>
      <trkpt lat="43.45916" lon="1.56452">
        <ele>196</ele>
        <time>2016-04-10T07:38:44.000Z</time>
      </trkpt>
      <trkpt lat="43.45923" lon="1.56447">
        <ele>196</ele>
        <time>2016-04-10T07:38:46.000Z</time>
      </trkpt>
      <trkpt lat="43.4593" lon="1.56441">
        <ele>196</ele>
        <time>2016-04-10T07:38:48.000Z</time>
      </trkpt>
      <trkpt lat="43.4594" lon="1.56433">
        <ele>196</ele>
        <time>2016-04-10T07:38:51.000Z</time>
      </trkpt>
      <trkpt lat="43.45946" lon="1.56427">
        <ele>196</ele>
        <time>2016-04-10T07:38:53.000Z</time>
      </trkpt>
      <trkpt lat="43.45955" lon="1.56418">
        <ele>196</ele>
        <time>2016-04-10T07:38:56.000Z</time>
      </trkpt>
      <trkpt lat="43.45961" lon="1.56412">
        <ele>196</ele>
        <time>2016-04-10T07:38:58.000Z</time>
      </trkpt>
      <trkpt lat="43.45968" lon="1.56407">
        <ele>196</ele>
        <time>2016-04-10T07:39:00.000Z</time>
      </trkpt>
      <trkpt lat="43.45975" lon="1.56402">
        <ele>198</ele>
        <time>2016-04-10T07:39:02.000Z</time>
      </trkpt>
      <trkpt lat="43.45981" lon="1.56396">
        <ele>198</ele>
        <time>2016-04-10T07:39:04.000Z</time>
      </trkpt>
      <trkpt lat="43.45987" lon="1.5639">
        <ele>198</ele>
        <time>2016-04-10T07:39:06.000Z</time>
      </trkpt>
      <trkpt lat="43.45997" lon="1.5638">
        <ele>198</ele>
        <time>2016-04-10T07:39:09.000Z</time>
      </trkpt>
      <trkpt lat="43.46004" lon="1.5637">
        <ele>197</ele>
        <time>2016-04-10T07:39:12.000Z</time>
      </trkpt>
      <trkpt lat="43.4601" lon="1.56362">
        <ele>197</ele>
        <time>2016-04-10T07:39:14.000Z</time>
      </trkpt>
      <trkpt lat="43.46015" lon="1.56355">
        <ele>197</ele>
        <time>2016-04-10T07:39:16.000Z</time>
      </trkpt>
      <trkpt lat="43.46021" lon="1.56348">
        <ele>197</ele>
        <time>2016-04-10T07:39:18.000Z</time>
      </trkpt>
      <trkpt lat="43.46027" lon="1.56341">
        <ele>197</ele>
        <time>2016-04-10T07:39:20.000Z</time>
      </trkpt>
      <trkpt lat="43.46033" lon="1.56334">
        <ele>196</ele>
        <time>2016-04-10T07:39:22.000Z</time>
      </trkpt>
      <trkpt lat="43.46038" lon="1.56326">
        <ele>196</ele>
        <time>2016-04-10T07:39:24.000Z</time>
      </trkpt>
      <trkpt lat="43.46043" lon="1.56319">
        <ele>196</ele>
        <time>2016-04-10T07:39:26.000Z</time>
      </trkpt>
      <trkpt lat="43.46048" lon="1.56311">
        <ele>196</ele>
        <time>2016-04-10T07:39:28.000Z</time>
      </trkpt>
      <trkpt lat="43.46053" lon="1.56303">
        <ele>196</ele>
        <time>2016-04-10T07:39:30.000Z</time>
      </trkpt>
      <trkpt lat="43.46058" lon="1.56296">
        <ele>198</ele>
        <time>2016-04-10T07:39:32.000Z</time>
      </trkpt>
      <trkpt lat="43.46063" lon="1.56288">
        <ele>198</ele>
        <time>2016-04-10T07:39:34.000Z</time>
      </trkpt>
      <trkpt lat="43.46068" lon="1.56281">
        <ele>198</ele>
        <time>2016-04-10T07:39:36.000Z</time>
      </trkpt>
      <trkpt lat="43.46072" lon="1.56273">
        <ele>198</ele>
        <time>2016-04-10T07:39:38.000Z</time>
      </trkpt>
      <trkpt lat="43.46077" lon="1.56266">
        <ele>198</ele>
        <time>2016-04-10T07:39:40.000Z</time>
      </trkpt>
      <trkpt lat="43.46083" lon="1.56258">
        <ele>198</ele>
        <time>2016-04-10T07:39:42.000Z</time>
      </trkpt>
      <trkpt lat="43.46087" lon="1.56249">
        <ele>198</ele>
        <time>2016-04-10T07:39:44.000Z</time>
      </trkpt>
      <trkpt lat="43.46092" lon="1.56241">
        <ele>198</ele>
        <time>2016-04-10T07:39:46.000Z</time>
      </trkpt>
      <trkpt lat="43.46097" lon="1.56233">
        <ele>198</ele>
        <time>2016-04-10T07:39:48.000Z</time>
      </trkpt>
      <trkpt lat="43.46102" lon="1.56225">
        <ele>198</ele>
        <time>2016-04-10T07:39:50.000Z</time>
      </trkpt>
      <trkpt lat="43.46106" lon="1.56217">
        <ele>200</ele>
        <time>2016-04-10T07:39:52.000Z</time>
      </trkpt>
      <trkpt lat="43.46113" lon="1.56206">
        <ele>200</ele>
        <time>2016-04-10T07:39:55.000Z</time>
      </trkpt>
      <trkpt lat="43.46117" lon="1.56199">
        <ele>201</ele>
        <time>2016-04-10T07:39:57.000Z</time>
      </trkpt>
      <trkpt lat="43.46123" lon="1.56192">
        <ele>201</ele>
        <time>2016-04-10T07:39:59.000Z</time>
      </trkpt>
      <trkpt lat="43.46128" lon="1.56185">
        <ele>201</ele>
        <time>2016-04-10T07:40:01.000Z</time>
      </trkpt>
      <trkpt lat="43.46137" lon="1.56175">
        <ele>201</ele>
        <time>2016-04-10T07:40:04.000Z</time>
      </trkpt>
      <trkpt lat="43.46145" lon="1.56165">
        <ele>201</ele>
        <time>2016-04-10T07:40:07.000Z</time>
      </trkpt>
      <trkpt lat="43.46152" lon="1.56155">
        <ele>201</ele>
        <time>2016-04-10T07:40:10.000Z</time>
      </trkpt>
      <trkpt lat="43.46159" lon="1.56145">
        <ele>203</ele>
        <time>2016-04-10T07:40:13.000Z</time>
      </trkpt>
      <trkpt lat="43.46167" lon="1.56136">
        <ele>203</ele>
        <time>2016-04-10T07:40:16.000Z</time>
      </trkpt>
      <trkpt lat="43.46174" lon="1.56126">
        <ele>203</ele>
        <time>2016-04-10T07:40:19.000Z</time>
      </trkpt>
      <trkpt lat="43.4618" lon="1.56119">
        <ele>203.54000051201</ele>
        <time>2016-04-10T07:40:21.000Z</time>
      </trkpt>
      <trkpt lat="43.46185" lon="1.56112">
        <ele>203</ele>
        <time>2016-04-10T07:40:23.000Z</time>
      </trkpt>
      <trkpt lat="43.46191" lon="1.56105">
        <ele>203</ele>
        <time>2016-04-10T07:40:25.000Z</time>
      </trkpt>
      <trkpt lat="43.46197" lon="1.56098">
        <ele>203</ele>
        <time>2016-04-10T07:40:27.000Z</time>
      </trkpt>
      <trkpt lat="43.46203" lon="1.56091">
        <ele>203</ele>
        <time>2016-04-10T07:40:29.000Z</time>
      </trkpt>
      <trkpt lat="43.46208" lon="1.56084">
        <ele>203</ele>
        <time>2016-04-10T07:40:31.000Z</time>
      </trkpt>
      <trkpt lat="43.46215" lon="1.56073">
        <ele>203</ele>
        <time>2016-04-10T07:40:34.000Z</time>
      </trkpt>
      <trkpt lat="43.46205" lon="1.56058">
        <ele>203</ele>
        <time>2016-04-10T07:40:38.000Z</time>
      </trkpt>
      <trkpt lat="43.46198" lon="1.56051">
        <ele>203</ele>
        <time>2016-04-10T07:40:40.000Z</time>
      </trkpt>
      <trkpt lat="43.46192" lon="1.56045">
        <ele>204</ele>
        <time>2016-04-10T07:40:42.000Z</time>
      </trkpt>
      <trkpt lat="43.46185" lon="1.56039">
        <ele>204</ele>
        <time>2016-04-10T07:40:44.000Z</time>
      </trkpt>
      <trkpt lat="43.46176" lon="1.56029">
        <ele>204</ele>
        <time>2016-04-10T07:40:47.000Z</time>
      </trkpt>
      <trkpt lat="43.46169" lon="1.56023">
        <ele>204</ele>
        <time>2016-04-10T07:40:49.000Z</time>
      </trkpt>
      <trkpt lat="43.46159" lon="1.56012">
        <ele>204</ele>
        <time>2016-04-10T07:40:52.000Z</time>
      </trkpt>
      <trkpt lat="43.4615" lon="1.56002">
        <ele>204</ele>
        <time>2016-04-10T07:40:55.000Z</time>
      </trkpt>
      <trkpt lat="43.46144" lon="1.55996">
        <ele>204</ele>
        <time>2016-04-10T07:40:57.000Z</time>
      </trkpt>
      <trkpt lat="43.46137" lon="1.5599">
        <ele>204</ele>
        <time>2016-04-10T07:40:59.000Z</time>
      </trkpt>
      <trkpt lat="43.4613" lon="1.55984">
        <ele>202.39393351693</ele>
        <time>2016-04-10T07:41:01.000Z</time>
      </trkpt>
      <trkpt lat="43.46124" lon="1.55977">
        <ele>201</ele>
        <time>2016-04-10T07:41:03.000Z</time>
      </trkpt>
      <trkpt lat="43.46118" lon="1.55971">
        <ele>201</ele>
        <time>2016-04-10T07:41:05.000Z</time>
      </trkpt>
      <trkpt lat="43.46111" lon="1.55965">
        <ele>199</ele>
        <time>2016-04-10T07:41:07.000Z</time>
      </trkpt>
      <trkpt lat="43.46101" lon="1.55955">
        <ele>199</ele>
        <time>2016-04-10T07:41:10.000Z</time>
      </trkpt>
      <trkpt lat="43.46094" lon="1.55949">
        <ele>194.93069055977</ele>
        <time>2016-04-10T07:41:12.000Z</time>
      </trkpt>
      <trkpt lat="43.46088" lon="1.5594">
        <ele>194</ele>
        <time>2016-04-10T07:41:14.000Z</time>
      </trkpt>
      <trkpt lat="43.46078" lon="1.55927">
        <ele>191.45999948799</ele>
        <time>2016-04-10T07:41:17.000Z</time>
      </trkpt>
      <trkpt lat="43.46069" lon="1.55914">
        <ele>190</ele>
        <time>2016-04-10T07:41:20.000Z</time>
      </trkpt>
      <trkpt lat="43.46063" lon="1.55905">
        <ele>189.46000051199</ele>
        <time>2016-04-10T07:41:22.000Z</time>
      </trkpt>
      <trkpt lat="43.46056" lon="1.55895">
        <ele>186.93069055977</ele>
        <time>2016-04-10T07:41:24.000Z</time>
      </trkpt>
      <trkpt lat="43.4605" lon="1.55887">
        <ele>184.46000051199</ele>
        <time>2016-04-10T07:41:26.000Z</time>
      </trkpt>
      <trkpt lat="43.46043" lon="1.55878">
        <ele>184</ele>
        <time>2016-04-10T07:41:28.000Z</time>
      </trkpt>
      <trkpt lat="43.46036" lon="1.55868">
        <ele>181.39603583966</ele>
        <time>2016-04-10T07:41:30.000Z</time>
      </trkpt>
      <trkpt lat="43.46029" lon="1.55859">
        <ele>178.92000102399</ele>
        <time>2016-04-10T07:41:32.000Z</time>
      </trkpt>
      <trkpt lat="43.46022" lon="1.5585">
        <ele>178</ele>
        <time>2016-04-10T07:41:34.000Z</time>
      </trkpt>
      <trkpt lat="43.46015" lon="1.5584">
        <ele>178</ele>
        <time>2016-04-10T07:41:36.000Z</time>
      </trkpt>
      <trkpt lat="43.46008" lon="1.55832">
        <ele>176</ele>
        <time>2016-04-10T07:41:38.000Z</time>
      </trkpt>
      <trkpt lat="43.45998" lon="1.5582">
        <ele>174</ele>
        <time>2016-04-10T07:41:41.000Z</time>
      </trkpt>
      <trkpt lat="43.45993" lon="1.55804">
        <ele>173.46000051199</ele>
        <time>2016-04-10T07:41:44.000Z</time>
      </trkpt>
      <trkpt lat="43.45992" lon="1.55788">
        <ele>174</ele>
        <time>2016-04-10T07:41:47.000Z</time>
      </trkpt>
      <trkpt lat="43.4599" lon="1.55771">
        <ele>174</ele>
        <time>2016-04-10T07:41:50.000Z</time>
      </trkpt>
      <trkpt lat="43.45989" lon="1.5576">
        <ele>174</ele>
        <time>2016-04-10T07:41:52.000Z</time>
      </trkpt>
      <trkpt lat="43.45988" lon="1.55746">
        <ele>174</ele>
        <time>2016-04-10T07:41:55.000Z</time>
      </trkpt>
      <trkpt lat="43.45985" lon="1.55728">
        <ele>174</ele>
        <time>2016-04-10T07:41:59.000Z</time>
      </trkpt>
      <trkpt lat="43.45983" lon="1.55714">
        <ele>173</ele>
        <time>2016-04-10T07:42:02.000Z</time>
      </trkpt>
      <trkpt lat="43.45981" lon="1.557">
        <ele>173</ele>
        <time>2016-04-10T07:42:05.000Z</time>
      </trkpt>
      <trkpt lat="43.45978" lon="1.55686">
        <ele>173</ele>
        <time>2016-04-10T07:42:08.000Z</time>
      </trkpt>
      <trkpt lat="43.45976" lon="1.55672">
        <ele>174.62000153602</ele>
        <time>2016-04-10T07:42:11.000Z</time>
      </trkpt>
      <trkpt lat="43.45974" lon="1.55662">
        <ele>176</ele>
        <time>2016-04-10T07:42:13.000Z</time>
      </trkpt>
      <trkpt lat="43.45972" lon="1.55652">
        <ele>176</ele>
        <time>2016-04-10T07:42:15.000Z</time>
      </trkpt>
      <trkpt lat="43.4597" lon="1.55643">
        <ele>177</ele>
        <time>2016-04-10T07:42:17.000Z</time>
      </trkpt>
      <trkpt lat="43.45967" lon="1.55633">
        <ele>177</ele>
        <time>2016-04-10T07:42:19.000Z</time>
      </trkpt>
      <trkpt lat="43.45964" lon="1.55624">
        <ele>177.54000051201</ele>
        <time>2016-04-10T07:42:21.000Z</time>
      </trkpt>
      <trkpt lat="43.45959" lon="1.55611">
        <ele>178</ele>
        <time>2016-04-10T07:42:24.000Z</time>
      </trkpt>
      <trkpt lat="43.45956" lon="1.55603">
        <ele>178</ele>
        <time>2016-04-10T07:42:26.000Z</time>
      </trkpt>
      <trkpt lat="43.45953" lon="1.55595">
        <ele>178</ele>
        <time>2016-04-10T07:42:28.000Z</time>
      </trkpt>
      <trkpt lat="43.4595" lon="1.55586">
        <ele>178</ele>
        <time>2016-04-10T07:42:30.000Z</time>
      </trkpt>
      <trkpt lat="43.45945" lon="1.55573">
        <ele>178</ele>
        <time>2016-04-10T07:42:33.000Z</time>
      </trkpt>
      <trkpt lat="43.45939" lon="1.55562">
        <ele>178</ele>
        <time>2016-04-10T07:42:36.000Z</time>
      </trkpt>
      <trkpt lat="43.45936" lon="1.55553">
        <ele>178</ele>
        <time>2016-04-10T07:42:38.000Z</time>
      </trkpt>
      <trkpt lat="43.45932" lon="1.55544">
        <ele>178</ele>
        <time>2016-04-10T07:42:40.000Z</time>
      </trkpt>
      <trkpt lat="43.45928" lon="1.55535">
        <ele>178</ele>
        <time>2016-04-10T07:42:42.000Z</time>
      </trkpt>
      <trkpt lat="43.45925" lon="1.55525">
        <ele>178</ele>
        <time>2016-04-10T07:42:44.000Z</time>
      </trkpt>
      <trkpt lat="43.45921" lon="1.55511">
        <ele>178</ele>
        <time>2016-04-10T07:42:47.000Z</time>
      </trkpt>
      <trkpt lat="43.45917" lon="1.55497">
        <ele>178</ele>
        <time>2016-04-10T07:42:50.000Z</time>
      </trkpt>
      <trkpt lat="43.45915" lon="1.55487">
        <ele>178</ele>
        <time>2016-04-10T07:42:52.000Z</time>
      </trkpt>
      <trkpt lat="43.45912" lon="1.55477">
        <ele>178</ele>
        <time>2016-04-10T07:42:54.000Z</time>
      </trkpt>
      <trkpt lat="43.4591" lon="1.55467">
        <ele>178</ele>
        <time>2016-04-10T07:42:56.000Z</time>
      </trkpt>
      <trkpt lat="43.45908" lon="1.55458">
        <ele>178</ele>
        <time>2016-04-10T07:42:58.000Z</time>
      </trkpt>
      <trkpt lat="43.45906" lon="1.55448">
        <ele>178</ele>
        <time>2016-04-10T07:43:00.000Z</time>
      </trkpt>
      <trkpt lat="43.45905" lon="1.5544">
        <ele>176</ele>
        <time>2016-04-10T07:43:02.000Z</time>
      </trkpt>
      <trkpt lat="43.45905" lon="1.5543">
        <ele>176</ele>
        <time>2016-04-10T07:43:04.000Z</time>
      </trkpt>
      <trkpt lat="43.45906" lon="1.55419">
        <ele>176</ele>
        <time>2016-04-10T07:43:06.000Z</time>
      </trkpt>
      <trkpt lat="43.45911" lon="1.55405">
        <ele>176</ele>
        <time>2016-04-10T07:43:09.000Z</time>
      </trkpt>
      <trkpt lat="43.45915" lon="1.55397">
        <ele>177.06123142029</ele>
        <time>2016-04-10T07:43:11.000Z</time>
      </trkpt>
      <trkpt lat="43.45918" lon="1.55389">
        <ele>178</ele>
        <time>2016-04-10T07:43:13.000Z</time>
      </trkpt>
      <trkpt lat="43.45922" lon="1.5538">
        <ele>178</ele>
        <time>2016-04-10T07:43:15.000Z</time>
      </trkpt>
      <trkpt lat="43.45926" lon="1.55372">
        <ele>179</ele>
        <time>2016-04-10T07:43:17.000Z</time>
      </trkpt>
      <trkpt lat="43.45929" lon="1.55363">
        <ele>179</ele>
        <time>2016-04-10T07:43:19.000Z</time>
      </trkpt>
      <trkpt lat="43.45933" lon="1.55355">
        <ele>178.45999948799</ele>
        <time>2016-04-10T07:43:21.000Z</time>
      </trkpt>
      <trkpt lat="43.45936" lon="1.55343">
        <ele>178</ele>
        <time>2016-04-10T07:43:24.000Z</time>
      </trkpt>
      <trkpt lat="43.45937" lon="1.55331">
        <ele>178</ele>
        <time>2016-04-10T07:43:27.000Z</time>
      </trkpt>
      <trkpt lat="43.45933" lon="1.55319">
        <ele>178</ele>
        <time>2016-04-10T07:43:30.000Z</time>
      </trkpt>
      <trkpt lat="43.45929" lon="1.55306">
        <ele>179</ele>
        <time>2016-04-10T07:43:33.000Z</time>
      </trkpt>
      <trkpt lat="43.45923" lon="1.55296">
        <ele>179</ele>
        <time>2016-04-10T07:43:36.000Z</time>
      </trkpt>
      <trkpt lat="43.45917" lon="1.55285">
        <ele>179</ele>
        <time>2016-04-10T07:43:39.000Z</time>
      </trkpt>
      <trkpt lat="43.45909" lon="1.55275">
        <ele>181</ele>
        <time>2016-04-10T07:43:42.000Z</time>
      </trkpt>
      <trkpt lat="43.45902" lon="1.55266">
        <ele>181</ele>
        <time>2016-04-10T07:43:45.000Z</time>
      </trkpt>
      <trkpt lat="43.45894" lon="1.55256">
        <ele>181</ele>
        <time>2016-04-10T07:43:48.000Z</time>
      </trkpt>
      <trkpt lat="43.45888" lon="1.55246">
        <ele>182.08000102401</ele>
        <time>2016-04-10T07:43:51.000Z</time>
      </trkpt>
      <trkpt lat="43.4588" lon="1.55237">
        <ele>183</ele>
        <time>2016-04-10T07:43:54.000Z</time>
      </trkpt>
      <trkpt lat="43.45872" lon="1.55229">
        <ele>185</ele>
        <time>2016-04-10T07:43:57.000Z</time>
      </trkpt>
      <trkpt lat="43.45864" lon="1.55221">
        <ele>185</ele>
        <time>2016-04-10T07:44:00.000Z</time>
      </trkpt>
      <trkpt lat="43.45857" lon="1.55212">
        <ele>186</ele>
        <time>2016-04-10T07:44:03.000Z</time>
      </trkpt>
      <trkpt lat="43.45849" lon="1.55201">
        <ele>186</ele>
        <time>2016-04-10T07:44:06.000Z</time>
      </trkpt>
      <trkpt lat="43.4584" lon="1.55188">
        <ele>186</ele>
        <time>2016-04-10T07:44:10.000Z</time>
      </trkpt>
      <trkpt lat="43.45835" lon="1.55177">
        <ele>185</ele>
        <time>2016-04-10T07:44:13.000Z</time>
      </trkpt>
      <trkpt lat="43.45829" lon="1.55166">
        <ele>185</ele>
        <time>2016-04-10T07:44:16.000Z</time>
      </trkpt>
      <trkpt lat="43.45825" lon="1.55153">
        <ele>185</ele>
        <time>2016-04-10T07:44:19.000Z</time>
      </trkpt>
      <trkpt lat="43.4582" lon="1.55139">
        <ele>187</ele>
        <time>2016-04-10T07:44:23.000Z</time>
      </trkpt>
      <trkpt lat="43.45813" lon="1.55124">
        <ele>187</ele>
        <time>2016-04-10T07:44:27.000Z</time>
      </trkpt>
      <trkpt lat="43.45807" lon="1.55109">
        <ele>187.52475096951</ele>
        <time>2016-04-10T07:44:31.000Z</time>
      </trkpt>
      <trkpt lat="43.45803" lon="1.55095">
        <ele>188</ele>
        <time>2016-04-10T07:44:35.000Z</time>
      </trkpt>
      <trkpt lat="43.458" lon="1.55076">
        <ele>188</ele>
        <time>2016-04-10T07:44:39.000Z</time>
      </trkpt>
      <trkpt lat="43.45794" lon="1.55061">
        <ele>190</ele>
        <time>2016-04-10T07:44:43.000Z</time>
      </trkpt>
      <trkpt lat="43.45792" lon="1.55047">
        <ele>190</ele>
        <time>2016-04-10T07:44:46.000Z</time>
      </trkpt>
      <trkpt lat="43.45789" lon="1.5503">
        <ele>190</ele>
        <time>2016-04-10T07:44:50.000Z</time>
      </trkpt>
      <trkpt lat="43.45787" lon="1.55017">
        <ele>193</ele>
        <time>2016-04-10T07:44:53.000Z</time>
      </trkpt>
      <trkpt lat="43.45785" lon="1.55">
        <ele>194</ele>
        <time>2016-04-10T07:44:57.000Z</time>
      </trkpt>
      <trkpt lat="43.45784" lon="1.54983">
        <ele>194.53535549436</ele>
        <time>2016-04-10T07:45:01.000Z</time>
      </trkpt>
      <trkpt lat="43.45786" lon="1.5497">
        <ele>195</ele>
        <time>2016-04-10T07:45:04.000Z</time>
      </trkpt>
      <trkpt lat="43.45788" lon="1.54956">
        <ele>196</ele>
        <time>2016-04-10T07:45:07.000Z</time>
      </trkpt>
      <trkpt lat="43.4579" lon="1.5494">
        <ele>197.08000102401</ele>
        <time>2016-04-10T07:45:11.000Z</time>
      </trkpt>
      <trkpt lat="43.45794" lon="1.54927">
        <ele>198</ele>
        <time>2016-04-10T07:45:15.000Z</time>
      </trkpt>
      <trkpt lat="43.45798" lon="1.54914">
        <ele>200</ele>
        <time>2016-04-10T07:45:19.000Z</time>
      </trkpt>
      <trkpt lat="43.458" lon="1.549">
        <ele>201</ele>
        <time>2016-04-10T07:45:23.000Z</time>
      </trkpt>
      <trkpt lat="43.45803" lon="1.54886">
        <ele>203</ele>
        <time>2016-04-10T07:45:27.000Z</time>
      </trkpt>
      <trkpt lat="43.45806" lon="1.54871">
        <ele>204.07071098871</ele>
        <time>2016-04-10T07:45:31.000Z</time>
      </trkpt>
      <trkpt lat="43.4581" lon="1.54857">
        <ele>205</ele>
        <time>2016-04-10T07:45:35.000Z</time>
      </trkpt>
      <trkpt lat="43.45815" lon="1.54844">
        <ele>207</ele>
        <time>2016-04-10T07:45:40.000Z</time>
      </trkpt>
      <trkpt lat="43.45818" lon="1.5483">
        <ele>209</ele>
        <time>2016-04-10T07:45:45.000Z</time>
      </trkpt>
      <trkpt lat="43.45819" lon="1.54814">
        <ele>210</ele>
        <time>2016-04-10T07:45:50.000Z</time>
      </trkpt>
      <trkpt lat="43.45822" lon="1.54797">
        <ele>211</ele>
        <time>2016-04-10T07:45:55.000Z</time>
      </trkpt>
      <trkpt lat="43.45822" lon="1.54783">
        <ele>213</ele>
        <time>2016-04-10T07:45:59.000Z</time>
      </trkpt>
      <trkpt lat="43.45821" lon="1.54768">
        <ele>216</ele>
        <time>2016-04-10T07:46:03.000Z</time>
      </trkpt>
      <trkpt lat="43.4582" lon="1.54754">
        <ele>217</ele>
        <time>2016-04-10T07:46:07.000Z</time>
      </trkpt>
      <trkpt lat="43.45818" lon="1.54738">
        <ele>218</ele>
        <time>2016-04-10T07:46:12.000Z</time>
      </trkpt>
      <trkpt lat="43.45817" lon="1.54724">
        <ele>218</ele>
        <time>2016-04-10T07:46:16.000Z</time>
      </trkpt>
      <trkpt lat="43.45818" lon="1.54707">
        <ele>219.08000102401</ele>
        <time>2016-04-10T07:46:21.000Z</time>
      </trkpt>
      <trkpt lat="43.45817" lon="1.54691">
        <ele>220</ele>
        <time>2016-04-10T07:46:26.000Z</time>
      </trkpt>
      <trkpt lat="43.45816" lon="1.54675">
        <ele>221.60606648307</ele>
        <time>2016-04-10T07:46:31.000Z</time>
      </trkpt>
      <trkpt lat="43.45816" lon="1.54659">
        <ele>224.60396416034</ele>
        <time>2016-04-10T07:46:36.000Z</time>
      </trkpt>
      <trkpt lat="43.45817" lon="1.54643">
        <ele>226.62000153602</ele>
        <time>2016-04-10T07:46:41.000Z</time>
      </trkpt>
      <trkpt lat="43.45817" lon="1.54629">
        <ele>229.54000051201</ele>
        <time>2016-04-10T07:46:45.000Z</time>
      </trkpt>
      <trkpt lat="43.45818" lon="1.54615">
        <ele>231</ele>
        <time>2016-04-10T07:46:49.000Z</time>
      </trkpt>
      <trkpt lat="43.45818" lon="1.54604">
        <ele>231</ele>
        <time>2016-04-10T07:46:52.000Z</time>
      </trkpt>
      <trkpt lat="43.45817" lon="1.54592">
        <ele>231</ele>
        <time>2016-04-10T07:46:55.000Z</time>
      </trkpt>
      <trkpt lat="43.45816" lon="1.54579">
        <ele>231</ele>
        <time>2016-04-10T07:46:58.000Z</time>
      </trkpt>
      <trkpt lat="43.45815" lon="1.54563">
        <ele>232</ele>
        <time>2016-04-10T07:47:02.000Z</time>
      </trkpt>
      <trkpt lat="43.45813" lon="1.54549">
        <ele>232</ele>
        <time>2016-04-10T07:47:06.000Z</time>
      </trkpt>
      <trkpt lat="43.45811" lon="1.54534">
        <ele>232</ele>
        <time>2016-04-10T07:47:10.000Z</time>
      </trkpt>
      <trkpt lat="43.4581" lon="1.54521">
        <ele>236</ele>
        <time>2016-04-10T07:47:13.000Z</time>
      </trkpt>
      <trkpt lat="43.45809" lon="1.5451">
        <ele>236.61999846402</ele>
        <time>2016-04-10T07:47:16.000Z</time>
      </trkpt>
      <trkpt lat="43.45807" lon="1.54498">
        <ele>238</ele>
        <time>2016-04-10T07:47:19.000Z</time>
      </trkpt>
      <trkpt lat="43.45805" lon="1.54482">
        <ele>239</ele>
        <time>2016-04-10T07:47:23.000Z</time>
      </trkpt>
      <trkpt lat="43.45803" lon="1.54466">
        <ele>241</ele>
        <time>2016-04-10T07:47:27.000Z</time>
      </trkpt>
      <trkpt lat="43.458" lon="1.5445">
        <ele>240</ele>
        <time>2016-04-10T07:47:31.000Z</time>
      </trkpt>
      <trkpt lat="43.45798" lon="1.54435">
        <ele>240</ele>
        <time>2016-04-10T07:47:35.000Z</time>
      </trkpt>
      <trkpt lat="43.45796" lon="1.54418">
        <ele>240</ele>
        <time>2016-04-10T07:47:39.000Z</time>
      </trkpt>
      <trkpt lat="43.45794" lon="1.54402">
        <ele>242</ele>
        <time>2016-04-10T07:47:43.000Z</time>
      </trkpt>
      <trkpt lat="43.45792" lon="1.54387">
        <ele>242</ele>
        <time>2016-04-10T07:47:47.000Z</time>
      </trkpt>
      <trkpt lat="43.45792" lon="1.54375">
        <ele>242</ele>
        <time>2016-04-10T07:47:50.000Z</time>
      </trkpt>
      <trkpt lat="43.45794" lon="1.54364">
        <ele>245</ele>
        <time>2016-04-10T07:47:53.000Z</time>
      </trkpt>
      <trkpt lat="43.45797" lon="1.54346">
        <ele>248</ele>
        <time>2016-04-10T07:47:57.000Z</time>
      </trkpt>
      <trkpt lat="43.45799" lon="1.54333">
        <ele>248</ele>
        <time>2016-04-10T07:48:00.000Z</time>
      </trkpt>
      <trkpt lat="43.45802" lon="1.54319">
        <ele>248</ele>
        <time>2016-04-10T07:48:03.000Z</time>
      </trkpt>
      <trkpt lat="43.45804" lon="1.54306">
        <ele>248</ele>
        <time>2016-04-10T07:48:06.000Z</time>
      </trkpt>
      <trkpt lat="43.45805" lon="1.54292">
        <ele>248</ele>
        <time>2016-04-10T07:48:09.000Z</time>
      </trkpt>
      <trkpt lat="43.45806" lon="1.54277">
        <ele>247</ele>
        <time>2016-04-10T07:48:12.000Z</time>
      </trkpt>
      <trkpt lat="43.45806" lon="1.54263">
        <ele>247</ele>
        <time>2016-04-10T07:48:15.000Z</time>
      </trkpt>
      <trkpt lat="43.45808" lon="1.54248">
        <ele>247</ele>
        <time>2016-04-10T07:48:18.000Z</time>
      </trkpt>
      <trkpt lat="43.45812" lon="1.54233">
        <ele>246.45999948799</ele>
        <time>2016-04-10T07:48:21.000Z</time>
      </trkpt>
      <trkpt lat="43.45816" lon="1.54223">
        <ele>246</ele>
        <time>2016-04-10T07:48:23.000Z</time>
      </trkpt>
      <trkpt lat="43.4582" lon="1.54214">
        <ele>246</ele>
        <time>2016-04-10T07:48:25.000Z</time>
      </trkpt>
      <trkpt lat="43.45824" lon="1.54205">
        <ele>246</ele>
        <time>2016-04-10T07:48:27.000Z</time>
      </trkpt>
      <trkpt lat="43.45829" lon="1.54195">
        <ele>246</ele>
        <time>2016-04-10T07:48:29.000Z</time>
      </trkpt>
      <trkpt lat="43.45833" lon="1.54186">
        <ele>243.85857802257</ele>
        <time>2016-04-10T07:48:31.000Z</time>
      </trkpt>
      <trkpt lat="43.45839" lon="1.54176">
        <ele>242</ele>
        <time>2016-04-10T07:48:33.000Z</time>
      </trkpt>
      <trkpt lat="43.45846" lon="1.54161">
        <ele>241.46534527989</ele>
        <time>2016-04-10T07:48:36.000Z</time>
      </trkpt>
      <trkpt lat="43.45853" lon="1.54147">
        <ele>241</ele>
        <time>2016-04-10T07:48:39.000Z</time>
      </trkpt>
      <trkpt lat="43.4586" lon="1.54132">
        <ele>239</ele>
        <time>2016-04-10T07:48:42.000Z</time>
      </trkpt>
      <trkpt lat="43.45866" lon="1.54117">
        <ele>239</ele>
        <time>2016-04-10T07:48:45.000Z</time>
      </trkpt>
      <trkpt lat="43.45872" lon="1.54101">
        <ele>238</ele>
        <time>2016-04-10T07:48:48.000Z</time>
      </trkpt>
      <trkpt lat="43.45878" lon="1.54085">
        <ele>237.45999948799</ele>
        <time>2016-04-10T07:48:51.000Z</time>
      </trkpt>
      <trkpt lat="43.45883" lon="1.54069">
        <ele>237</ele>
        <time>2016-04-10T07:48:54.000Z</time>
      </trkpt>
      <trkpt lat="43.45889" lon="1.54053">
        <ele>237</ele>
        <time>2016-04-10T07:48:57.000Z</time>
      </trkpt>
      <trkpt lat="43.45893" lon="1.54035">
        <ele>237</ele>
        <time>2016-04-10T07:49:00.000Z</time>
      </trkpt>
      <trkpt lat="43.45897" lon="1.54019">
        <ele>231</ele>
        <time>2016-04-10T07:49:03.000Z</time>
      </trkpt>
      <trkpt lat="43.45901" lon="1.54002">
        <ele>230</ele>
        <time>2016-04-10T07:49:06.000Z</time>
      </trkpt>
      <trkpt lat="43.45905" lon="1.53985">
        <ele>228</ele>
        <time>2016-04-10T07:49:09.000Z</time>
      </trkpt>
      <trkpt lat="43.45909" lon="1.53969">
        <ele>228</ele>
        <time>2016-04-10T07:49:12.000Z</time>
      </trkpt>
      <trkpt lat="43.45913" lon="1.53954">
        <ele>228</ele>
        <time>2016-04-10T07:49:15.000Z</time>
      </trkpt>
      <trkpt lat="43.45915" lon="1.53944">
        <ele>228</ele>
        <time>2016-04-10T07:49:17.000Z</time>
      </trkpt>
      <trkpt lat="43.45919" lon="1.53933">
        <ele>228</ele>
        <time>2016-04-10T07:49:19.000Z</time>
      </trkpt>
      <trkpt lat="43.45922" lon="1.53922">
        <ele>227.45999948799</ele>
        <time>2016-04-10T07:49:21.000Z</time>
      </trkpt>
      <trkpt lat="43.45926" lon="1.53912">
        <ele>227</ele>
        <time>2016-04-10T07:49:23.000Z</time>
      </trkpt>
      <trkpt lat="43.4593" lon="1.53902">
        <ele>227</ele>
        <time>2016-04-10T07:49:25.000Z</time>
      </trkpt>
      <trkpt lat="43.45936" lon="1.53888">
        <ele>227</ele>
        <time>2016-04-10T07:49:28.000Z</time>
      </trkpt>
      <trkpt lat="43.45942" lon="1.53875">
        <ele>225.39393351693</ele>
        <time>2016-04-10T07:49:31.000Z</time>
      </trkpt>
      <trkpt lat="43.45948" lon="1.5386">
        <ele>224</ele>
        <time>2016-04-10T07:49:34.000Z</time>
      </trkpt>
      <trkpt lat="43.45952" lon="1.53846">
        <ele>223</ele>
        <time>2016-04-10T07:49:37.000Z</time>
      </trkpt>
      <trkpt lat="43.45957" lon="1.53831">
        <ele>223</ele>
        <time>2016-04-10T07:49:40.000Z</time>
      </trkpt>
      <trkpt lat="43.45962" lon="1.53817">
        <ele>222</ele>
        <time>2016-04-10T07:49:43.000Z</time>
      </trkpt>
      <trkpt lat="43.45967" lon="1.53804">
        <ele>222</ele>
        <time>2016-04-10T07:49:46.000Z</time>
      </trkpt>
      <trkpt lat="43.45972" lon="1.53789">
        <ele>222</ele>
        <time>2016-04-10T07:49:49.000Z</time>
      </trkpt>
      <trkpt lat="43.45974" lon="1.53774">
        <ele>221</ele>
        <time>2016-04-10T07:49:52.000Z</time>
      </trkpt>
      <trkpt lat="43.45976" lon="1.53758">
        <ele>221</ele>
        <time>2016-04-10T07:49:55.000Z</time>
      </trkpt>
      <trkpt lat="43.45976" lon="1.53743">
        <ele>221</ele>
        <time>2016-04-10T07:49:58.000Z</time>
      </trkpt>
      <trkpt lat="43.45978" lon="1.53728">
        <ele>219.92928901129</ele>
        <time>2016-04-10T07:50:01.000Z</time>
      </trkpt>
      <trkpt lat="43.45979" lon="1.53714">
        <ele>219</ele>
        <time>2016-04-10T07:50:04.000Z</time>
      </trkpt>
      <trkpt lat="43.45984" lon="1.53698">
        <ele>219</ele>
        <time>2016-04-10T07:50:07.000Z</time>
      </trkpt>
      <trkpt lat="43.45989" lon="1.53684">
        <ele>219</ele>
        <time>2016-04-10T07:50:10.000Z</time>
      </trkpt>
      <trkpt lat="43.45992" lon="1.53671">
        <ele>217</ele>
        <time>2016-04-10T07:50:13.000Z</time>
      </trkpt>
      <trkpt lat="43.45998" lon="1.53656">
        <ele>217</ele>
        <time>2016-04-10T07:50:16.000Z</time>
      </trkpt>
      <trkpt lat="43.46004" lon="1.53642">
        <ele>217</ele>
        <time>2016-04-10T07:50:19.000Z</time>
      </trkpt>
      <trkpt lat="43.46009" lon="1.53629">
        <ele>215</ele>
        <time>2016-04-10T07:50:22.000Z</time>
      </trkpt>
      <trkpt lat="43.46012" lon="1.53615">
        <ele>215</ele>
        <time>2016-04-10T07:50:25.000Z</time>
      </trkpt>
      <trkpt lat="43.46014" lon="1.53602">
        <ele>214</ele>
        <time>2016-04-10T07:50:28.000Z</time>
      </trkpt>
      <trkpt lat="43.46017" lon="1.53588">
        <ele>213.46464450564</ele>
        <time>2016-04-10T07:50:31.000Z</time>
      </trkpt>
      <trkpt lat="43.4602" lon="1.53574">
        <ele>213</ele>
        <time>2016-04-10T07:50:34.000Z</time>
      </trkpt>
      <trkpt lat="43.46025" lon="1.53561">
        <ele>213</ele>
        <time>2016-04-10T07:50:37.000Z</time>
      </trkpt>
      <trkpt lat="43.4603" lon="1.53548">
        <ele>213</ele>
        <time>2016-04-10T07:50:40.000Z</time>
      </trkpt>
      <trkpt lat="43.46032" lon="1.53532">
        <ele>212</ele>
        <time>2016-04-10T07:50:43.000Z</time>
      </trkpt>
      <trkpt lat="43.46037" lon="1.53517">
        <ele>212</ele>
        <time>2016-04-10T07:50:46.000Z</time>
      </trkpt>
      <trkpt lat="43.4604" lon="1.53501">
        <ele>212</ele>
        <time>2016-04-10T07:50:49.000Z</time>
      </trkpt>
      <trkpt lat="43.46046" lon="1.53486">
        <ele>210</ele>
        <time>2016-04-10T07:50:52.000Z</time>
      </trkpt>
      <trkpt lat="43.46051" lon="1.53474">
        <ele>210</ele>
        <time>2016-04-10T07:50:55.000Z</time>
      </trkpt>
      <trkpt lat="43.46055" lon="1.53458">
        <ele>210</ele>
        <time>2016-04-10T07:50:59.000Z</time>
      </trkpt>
      <trkpt lat="43.46061" lon="1.53442">
        <ele>206</ele>
        <time>2016-04-10T07:51:03.000Z</time>
      </trkpt>
      <trkpt lat="43.46067" lon="1.53428">
        <ele>205.46534527989</ele>
        <time>2016-04-10T07:51:06.000Z</time>
      </trkpt>
      <trkpt lat="43.46074" lon="1.53415">
        <ele>205</ele>
        <time>2016-04-10T07:51:09.000Z</time>
      </trkpt>
      <trkpt lat="43.4608" lon="1.53402">
        <ele>204</ele>
        <time>2016-04-10T07:51:12.000Z</time>
      </trkpt>
      <trkpt lat="43.46085" lon="1.5339">
        <ele>204</ele>
        <time>2016-04-10T07:51:15.000Z</time>
      </trkpt>
      <trkpt lat="43.46092" lon="1.53379">
        <ele>204</ele>
        <time>2016-04-10T07:51:18.000Z</time>
      </trkpt>
      <trkpt lat="43.46098" lon="1.53368">
        <ele>203.45999948799</ele>
        <time>2016-04-10T07:51:21.000Z</time>
      </trkpt>
      <trkpt lat="43.46101" lon="1.53354">
        <ele>203</ele>
        <time>2016-04-10T07:51:24.000Z</time>
      </trkpt>
      <trkpt lat="43.46106" lon="1.5334">
        <ele>203</ele>
        <time>2016-04-10T07:51:27.000Z</time>
      </trkpt>
      <trkpt lat="43.4611" lon="1.53327">
        <ele>203</ele>
        <time>2016-04-10T07:51:30.000Z</time>
      </trkpt>
      <trkpt lat="43.46117" lon="1.53312">
        <ele>202</ele>
        <time>2016-04-10T07:51:34.000Z</time>
      </trkpt>
      <trkpt lat="43.46122" lon="1.53299">
        <ele>202</ele>
        <time>2016-04-10T07:51:38.000Z</time>
      </trkpt>
      <trkpt lat="43.46127" lon="1.53284">
        <ele>200</ele>
        <time>2016-04-10T07:51:42.000Z</time>
      </trkpt>
      <trkpt lat="43.46132" lon="1.53268">
        <ele>200</ele>
        <time>2016-04-10T07:51:46.000Z</time>
      </trkpt>
      <trkpt lat="43.46138" lon="1.53255">
        <ele>200</ele>
        <time>2016-04-10T07:51:49.000Z</time>
      </trkpt>
      <trkpt lat="43.46144" lon="1.53241">
        <ele>200</ele>
        <time>2016-04-10T07:51:52.000Z</time>
      </trkpt>
      <trkpt lat="43.46149" lon="1.53228">
        <ele>200</ele>
        <time>2016-04-10T07:51:56.000Z</time>
      </trkpt>
      <trkpt lat="43.46151" lon="1.53213">
        <ele>200</ele>
        <time>2016-04-10T07:52:00.000Z</time>
      </trkpt>
      <trkpt lat="43.46157" lon="1.53197">
        <ele>197</ele>
        <time>2016-04-10T07:52:04.000Z</time>
      </trkpt>
      <trkpt lat="43.4616" lon="1.5318">
        <ele>197</ele>
        <time>2016-04-10T07:52:08.000Z</time>
      </trkpt>
      <trkpt lat="43.46159" lon="1.53164">
        <ele>196</ele>
        <time>2016-04-10T07:52:12.000Z</time>
      </trkpt>
      <trkpt lat="43.46155" lon="1.53148">
        <ele>196</ele>
        <time>2016-04-10T07:52:16.000Z</time>
      </trkpt>
      <trkpt lat="43.46144" lon="1.53145">
        <ele>196</ele>
        <time>2016-04-10T07:52:22.000Z</time>
      </trkpt>
      <trkpt lat="43.46134" lon="1.53151">
        <ele>196</ele>
        <time>2016-04-10T07:52:26.000Z</time>
      </trkpt>
      <trkpt lat="43.46123" lon="1.53157">
        <ele>196</ele>
        <time>2016-04-10T07:52:30.000Z</time>
      </trkpt>
      <trkpt lat="43.46112" lon="1.53163">
        <ele>196</ele>
        <time>2016-04-10T07:52:34.000Z</time>
      </trkpt>
      <trkpt lat="43.461" lon="1.53169">
        <ele>196</ele>
        <time>2016-04-10T07:52:38.000Z</time>
      </trkpt>
      <trkpt lat="43.46088" lon="1.53173">
        <ele>197</ele>
        <time>2016-04-10T07:52:42.000Z</time>
      </trkpt>
      <trkpt lat="43.46076" lon="1.53178">
        <ele>197</ele>
        <time>2016-04-10T07:52:46.000Z</time>
      </trkpt>
      <trkpt lat="43.46063" lon="1.53184">
        <ele>197</ele>
        <time>2016-04-10T07:52:50.000Z</time>
      </trkpt>
      <trkpt lat="43.46053" lon="1.53189">
        <ele>198</ele>
        <time>2016-04-10T07:52:53.000Z</time>
      </trkpt>
      <trkpt lat="43.46042" lon="1.53192">
        <ele>198</ele>
        <time>2016-04-10T07:52:56.000Z</time>
      </trkpt>
      <trkpt lat="43.4603" lon="1.53195">
        <ele>198</ele>
        <time>2016-04-10T07:52:59.000Z</time>
      </trkpt>
      <trkpt lat="43.4602" lon="1.53196">
        <ele>198</ele>
        <time>2016-04-10T07:53:02.000Z</time>
      </trkpt>
      <trkpt lat="43.4601" lon="1.53197">
        <ele>198</ele>
        <time>2016-04-10T07:53:05.000Z</time>
      </trkpt>
      <trkpt lat="43.46" lon="1.53198">
        <ele>198</ele>
        <time>2016-04-10T07:53:08.000Z</time>
      </trkpt>
      <trkpt lat="43.4599" lon="1.53199">
        <ele>199.08000102401</ele>
        <time>2016-04-10T07:53:11.000Z</time>
      </trkpt>
      <trkpt lat="43.45977" lon="1.532">
        <ele>200</ele>
        <time>2016-04-10T07:53:15.000Z</time>
      </trkpt>
      <trkpt lat="43.45966" lon="1.53201">
        <ele>201</ele>
        <time>2016-04-10T07:53:19.000Z</time>
      </trkpt>
      <trkpt lat="43.45953" lon="1.53201">
        <ele>200</ele>
        <time>2016-04-10T07:53:23.000Z</time>
      </trkpt>
      <trkpt lat="43.45943" lon="1.53203">
        <ele>200</ele>
        <time>2016-04-10T07:53:26.000Z</time>
      </trkpt>
      <trkpt lat="43.4593" lon="1.53205">
        <ele>200</ele>
        <time>2016-04-10T07:53:30.000Z</time>
      </trkpt>
      <trkpt lat="43.45918" lon="1.53206">
        <ele>202</ele>
        <time>2016-04-10T07:53:34.000Z</time>
      </trkpt>
      <trkpt lat="43.45907" lon="1.53208">
        <ele>202</ele>
        <time>2016-04-10T07:53:38.000Z</time>
      </trkpt>
      <trkpt lat="43.45896" lon="1.53209">
        <ele>205</ele>
        <time>2016-04-10T07:53:42.000Z</time>
      </trkpt>
      <trkpt lat="43.45886" lon="1.53212">
        <ele>205.53999948801</ele>
        <time>2016-04-10T07:53:46.000Z</time>
      </trkpt>
      <trkpt lat="43.45875" lon="1.53214">
        <ele>206</ele>
        <time>2016-04-10T07:53:50.000Z</time>
      </trkpt>
      <trkpt lat="43.45864" lon="1.53218">
        <ele>208</ele>
        <time>2016-04-10T07:53:54.000Z</time>
      </trkpt>
      <trkpt lat="43.45852" lon="1.5322">
        <ele>210</ele>
        <time>2016-04-10T07:53:58.000Z</time>
      </trkpt>
      <trkpt lat="43.4584" lon="1.53221">
        <ele>212</ele>
        <time>2016-04-10T07:54:02.000Z</time>
      </trkpt>
      <trkpt lat="43.45828" lon="1.53219">
        <ele>212</ele>
        <time>2016-04-10T07:54:06.000Z</time>
      </trkpt>
      <trkpt lat="43.45818" lon="1.53221">
        <ele>212</ele>
        <time>2016-04-10T07:54:10.000Z</time>
      </trkpt>
      <trkpt lat="43.45806" lon="1.53225">
        <ele>212</ele>
        <time>2016-04-10T07:54:15.000Z</time>
      </trkpt>
      <trkpt lat="43.45794" lon="1.53222">
        <ele>212</ele>
        <time>2016-04-10T07:54:19.000Z</time>
      </trkpt>
      <trkpt lat="43.45782" lon="1.53224">
        <ele>215</ele>
        <time>2016-04-10T07:54:23.000Z</time>
      </trkpt>
      <trkpt lat="43.4577" lon="1.53224">
        <ele>218</ele>
        <time>2016-04-10T07:54:27.000Z</time>
      </trkpt>
      <trkpt lat="43.45757" lon="1.53225">
        <ele>218</ele>
        <time>2016-04-10T07:54:31.000Z</time>
      </trkpt>
      <trkpt lat="43.45746" lon="1.53226">
        <ele>218</ele>
        <time>2016-04-10T07:54:35.000Z</time>
      </trkpt>
      <trkpt lat="43.45734" lon="1.53225">
        <ele>219</ele>
        <time>2016-04-10T07:54:39.000Z</time>
      </trkpt>
      <trkpt lat="43.45725" lon="1.53229">
        <ele>220</ele>
        <time>2016-04-10T07:54:43.000Z</time>
      </trkpt>
      <trkpt lat="43.45714" lon="1.53236">
        <ele>220</ele>
        <time>2016-04-10T07:54:48.000Z</time>
      </trkpt>
      <trkpt lat="43.45704" lon="1.53243">
        <ele>218</ele>
        <time>2016-04-10T07:54:52.000Z</time>
      </trkpt>
      <trkpt lat="43.45694" lon="1.5325">
        <ele>218</ele>
        <time>2016-04-10T07:54:56.000Z</time>
      </trkpt>
      <trkpt lat="43.45683" lon="1.53258">
        <ele>218</ele>
        <time>2016-04-10T07:55:00.000Z</time>
      </trkpt>
      <trkpt lat="43.45672" lon="1.53261">
        <ele>216</ele>
        <time>2016-04-10T07:55:03.000Z</time>
      </trkpt>
      <trkpt lat="43.45661" lon="1.53261">
        <ele>216</ele>
        <time>2016-04-10T07:55:06.000Z</time>
      </trkpt>
      <trkpt lat="43.45651" lon="1.5326">
        <ele>216</ele>
        <time>2016-04-10T07:55:09.000Z</time>
      </trkpt>
      <trkpt lat="43.45641" lon="1.5326">
        <ele>218</ele>
        <time>2016-04-10T07:55:12.000Z</time>
      </trkpt>
      <trkpt lat="43.4563" lon="1.5326">
        <ele>218</ele>
        <time>2016-04-10T07:55:15.000Z</time>
      </trkpt>
      <trkpt lat="43.45619" lon="1.5326">
        <ele>221</ele>
        <time>2016-04-10T07:55:18.000Z</time>
      </trkpt>
      <trkpt lat="43.45609" lon="1.53261">
        <ele>219.91999897599</ele>
        <time>2016-04-10T07:55:21.000Z</time>
      </trkpt>
      <trkpt lat="43.45598" lon="1.53262">
        <ele>219</ele>
        <time>2016-04-10T07:55:24.000Z</time>
      </trkpt>
      <trkpt lat="43.45586" lon="1.53264">
        <ele>219</ele>
        <time>2016-04-10T07:55:28.000Z</time>
      </trkpt>
      <trkpt lat="43.45574" lon="1.53267">
        <ele>220</ele>
        <time>2016-04-10T07:55:32.000Z</time>
      </trkpt>
      <trkpt lat="43.45563" lon="1.53271">
        <ele>220</ele>
        <time>2016-04-10T07:55:36.000Z</time>
      </trkpt>
      <trkpt lat="43.45552" lon="1.5328">
        <ele>220</ele>
        <time>2016-04-10T07:55:40.000Z</time>
      </trkpt>
      <trkpt lat="43.45543" lon="1.53287">
        <ele>218</ele>
        <time>2016-04-10T07:55:43.000Z</time>
      </trkpt>
      <trkpt lat="43.45533" lon="1.53294">
        <ele>214</ele>
        <time>2016-04-10T07:55:47.000Z</time>
      </trkpt>
      <trkpt lat="43.45521" lon="1.53302">
        <ele>213.46535117735</ele>
        <time>2016-04-10T07:55:51.000Z</time>
      </trkpt>
      <trkpt lat="43.45509" lon="1.53308">
        <ele>213</ele>
        <time>2016-04-10T07:55:55.000Z</time>
      </trkpt>
      <trkpt lat="43.45506" lon="1.53323">
        <ele>212</ele>
        <time>2016-04-10T07:56:00.000Z</time>
      </trkpt>
      <trkpt lat="43.45512" lon="1.53334">
        <ele>212</ele>
        <time>2016-04-10T07:56:06.000Z</time>
      </trkpt>
      <trkpt lat="43.45524" lon="1.53334">
        <ele>212</ele>
        <time>2016-04-10T07:56:10.000Z</time>
      </trkpt>
      <trkpt lat="43.45536" lon="1.53335">
        <ele>212</ele>
        <time>2016-04-10T07:56:13.000Z</time>
      </trkpt>
      <trkpt lat="43.45547" lon="1.53335">
        <ele>212</ele>
        <time>2016-04-10T07:56:16.000Z</time>
      </trkpt>
      <trkpt lat="43.45559" lon="1.53336">
        <ele>212</ele>
        <time>2016-04-10T07:56:19.000Z</time>
      </trkpt>
      <trkpt lat="43.45568" lon="1.53336">
        <ele>212</ele>
        <time>2016-04-10T07:56:21.000Z</time>
      </trkpt>
      <trkpt lat="43.45576" lon="1.53337">
        <ele>212</ele>
        <time>2016-04-10T07:56:23.000Z</time>
      </trkpt>
      <trkpt lat="43.45587" lon="1.53339">
        <ele>212</ele>
        <time>2016-04-10T07:56:26.000Z</time>
      </trkpt>
      <trkpt lat="43.45598" lon="1.53341">
        <ele>212</ele>
        <time>2016-04-10T07:56:29.000Z</time>
      </trkpt>
      <trkpt lat="43.45609" lon="1.53343">
        <ele>212</ele>
        <time>2016-04-10T07:56:32.000Z</time>
      </trkpt>
      <trkpt lat="43.45617" lon="1.53343">
        <ele>212</ele>
        <time>2016-04-10T07:56:34.000Z</time>
      </trkpt>
      <trkpt lat="43.45625" lon="1.53343">
        <ele>212</ele>
        <time>2016-04-10T07:56:36.000Z</time>
      </trkpt>
      <trkpt lat="43.45635" lon="1.53345">
        <ele>212</ele>
        <time>2016-04-10T07:56:39.000Z</time>
      </trkpt>
      <trkpt lat="43.45646" lon="1.53348">
        <ele>212</ele>
        <time>2016-04-10T07:56:42.000Z</time>
      </trkpt>
      <trkpt lat="43.45655" lon="1.53354">
        <ele>212</ele>
        <time>2016-04-10T07:56:45.000Z</time>
      </trkpt>
      <trkpt lat="43.45663" lon="1.53363">
        <ele>212</ele>
        <time>2016-04-10T07:56:48.000Z</time>
      </trkpt>
      <trkpt lat="43.45668" lon="1.53372">
        <ele>212</ele>
        <time>2016-04-10T07:56:50.000Z</time>
      </trkpt>
      <trkpt lat="43.45673" lon="1.53381">
        <ele>217</ele>
        <time>2016-04-10T07:56:52.000Z</time>
      </trkpt>
      <trkpt lat="43.45676" lon="1.53391">
        <ele>217</ele>
        <time>2016-04-10T07:56:54.000Z</time>
      </trkpt>
      <trkpt lat="43.45678" lon="1.53402">
        <ele>217.53999948801</ele>
        <time>2016-04-10T07:56:56.000Z</time>
      </trkpt>
      <trkpt lat="43.4568" lon="1.53412">
        <ele>218</ele>
        <time>2016-04-10T07:56:58.000Z</time>
      </trkpt>
      <trkpt lat="43.4568" lon="1.53422">
        <ele>218</ele>
        <time>2016-04-10T07:57:00.000Z</time>
      </trkpt>
      <trkpt lat="43.4568" lon="1.53436">
        <ele>216.92928901129</ele>
        <time>2016-04-10T07:57:03.000Z</time>
      </trkpt>
      <trkpt lat="43.45677" lon="1.53452">
        <ele>212.39393351693</ele>
        <time>2016-04-10T07:57:07.000Z</time>
      </trkpt>
      <trkpt lat="43.45675" lon="1.53468">
        <ele>213.62000153602</ele>
        <time>2016-04-10T07:57:11.000Z</time>
      </trkpt>
      <trkpt lat="43.45673" lon="1.53482">
        <ele>215</ele>
        <time>2016-04-10T07:57:14.000Z</time>
      </trkpt>
      <trkpt lat="43.45669" lon="1.53496">
        <ele>215</ele>
        <time>2016-04-10T07:57:17.000Z</time>
      </trkpt>
      <trkpt lat="43.45665" lon="1.53511">
        <ele>213.37999846398</ele>
        <time>2016-04-10T07:57:21.000Z</time>
      </trkpt>
      <trkpt lat="43.45659" lon="1.53526">
        <ele>212</ele>
        <time>2016-04-10T07:57:25.000Z</time>
      </trkpt>
      <trkpt lat="43.45658" lon="1.53541">
        <ele>212</ele>
        <time>2016-04-10T07:57:28.000Z</time>
      </trkpt>
      <trkpt lat="43.4566" lon="1.53555">
        <ele>212.53535549436</ele>
        <time>2016-04-10T07:57:31.000Z</time>
      </trkpt>
      <trkpt lat="43.45657" lon="1.53569">
        <ele>213</ele>
        <time>2016-04-10T07:57:34.000Z</time>
      </trkpt>
      <trkpt lat="43.45652" lon="1.53583">
        <ele>213</ele>
        <time>2016-04-10T07:57:37.000Z</time>
      </trkpt>
      <trkpt lat="43.45648" lon="1.53596">
        <ele>213</ele>
        <time>2016-04-10T07:57:40.000Z</time>
      </trkpt>
      <trkpt lat="43.45643" lon="1.53609">
        <ele>216</ele>
        <time>2016-04-10T07:57:43.000Z</time>
      </trkpt>
      <trkpt lat="43.45639" lon="1.53621">
        <ele>216.53999948801</ele>
        <time>2016-04-10T07:57:46.000Z</time>
      </trkpt>
      <trkpt lat="43.45635" lon="1.53633">
        <ele>217</ele>
        <time>2016-04-10T07:57:49.000Z</time>
      </trkpt>
      <trkpt lat="43.4563" lon="1.53644">
        <ele>216</ele>
        <time>2016-04-10T07:57:52.000Z</time>
      </trkpt>
      <trkpt lat="43.45625" lon="1.53658">
        <ele>216</ele>
        <time>2016-04-10T07:57:56.000Z</time>
      </trkpt>
      <trkpt lat="43.45621" lon="1.53669">
        <ele>216</ele>
        <time>2016-04-10T07:57:59.000Z</time>
      </trkpt>
      <trkpt lat="43.45617" lon="1.5368">
        <ele>220.38000153598</ele>
        <time>2016-04-10T07:58:02.000Z</time>
      </trkpt>
      <trkpt lat="43.45612" lon="1.5369">
        <ele>220.37999846398</ele>
        <time>2016-04-10T07:58:05.000Z</time>
      </trkpt>
      <trkpt lat="43.45608" lon="1.53701">
        <ele>220.38000153598</ele>
        <time>2016-04-10T07:58:08.000Z</time>
      </trkpt>
      <trkpt lat="43.45605" lon="1.53713">
        <ele>221.37999846398</ele>
        <time>2016-04-10T07:58:11.000Z</time>
      </trkpt>
      <trkpt lat="43.45601" lon="1.53725">
        <ele>220</ele>
        <time>2016-04-10T07:58:14.000Z</time>
      </trkpt>
      <trkpt lat="43.45596" lon="1.5374">
        <ele>220</ele>
        <time>2016-04-10T07:58:18.000Z</time>
      </trkpt>
      <trkpt lat="43.45592" lon="1.53754">
        <ele>224</ele>
        <time>2016-04-10T07:58:22.000Z</time>
      </trkpt>
      <trkpt lat="43.45588" lon="1.53766">
        <ele>224</ele>
        <time>2016-04-10T07:58:25.000Z</time>
      </trkpt>
      <trkpt lat="43.45585" lon="1.53778">
        <ele>228</ele>
        <time>2016-04-10T07:58:28.000Z</time>
      </trkpt>
      <trkpt lat="43.45581" lon="1.53789">
        <ele>226.39393351693</ele>
        <time>2016-04-10T07:58:31.000Z</time>
      </trkpt>
      <trkpt lat="43.45577" lon="1.53803">
        <ele>225</ele>
        <time>2016-04-10T07:58:35.000Z</time>
      </trkpt>
      <trkpt lat="43.45573" lon="1.53817">
        <ele>225</ele>
        <time>2016-04-10T07:58:39.000Z</time>
      </trkpt>
      <trkpt lat="43.45568" lon="1.53832">
        <ele>228</ele>
        <time>2016-04-10T07:58:43.000Z</time>
      </trkpt>
      <trkpt lat="43.45564" lon="1.53846">
        <ele>232</ele>
        <time>2016-04-10T07:58:47.000Z</time>
      </trkpt>
      <trkpt lat="43.45561" lon="1.5386">
        <ele>229.83999795197</ele>
        <time>2016-04-10T07:58:51.000Z</time>
      </trkpt>
      <trkpt lat="43.45557" lon="1.53873">
        <ele>228</ele>
        <time>2016-04-10T07:58:55.000Z</time>
      </trkpt>
      <trkpt lat="43.45553" lon="1.53886">
        <ele>228</ele>
        <time>2016-04-10T07:58:59.000Z</time>
      </trkpt>
      <trkpt lat="43.45549" lon="1.539">
        <ele>232</ele>
        <time>2016-04-10T07:59:03.000Z</time>
      </trkpt>
      <trkpt lat="43.45545" lon="1.53914">
        <ele>231</ele>
        <time>2016-04-10T07:59:07.000Z</time>
      </trkpt>
      <trkpt lat="43.45541" lon="1.53928">
        <ele>230.45999948799</ele>
        <time>2016-04-10T07:59:11.000Z</time>
      </trkpt>
      <trkpt lat="43.45536" lon="1.53943">
        <ele>230</ele>
        <time>2016-04-10T07:59:15.000Z</time>
      </trkpt>
      <trkpt lat="43.45532" lon="1.53956">
        <ele>230</ele>
        <time>2016-04-10T07:59:19.000Z</time>
      </trkpt>
      <trkpt lat="43.45528" lon="1.53969">
        <ele>233.47059118802</ele>
        <time>2016-04-10T07:59:23.000Z</time>
      </trkpt>
      <trkpt lat="43.45524" lon="1.53984">
        <ele>234.16000204803</ele>
        <time>2016-04-10T07:59:27.000Z</time>
      </trkpt>
      <trkpt lat="43.45521" lon="1.53999">
        <ele>235.39393351693</ele>
        <time>2016-04-10T07:59:31.000Z</time>
      </trkpt>
      <trkpt lat="43.45517" lon="1.5401">
        <ele>234</ele>
        <time>2016-04-10T07:59:34.000Z</time>
      </trkpt>
      <trkpt lat="43.45513" lon="1.54021">
        <ele>234</ele>
        <time>2016-04-10T07:59:37.000Z</time>
      </trkpt>
      <trkpt lat="43.45509" lon="1.54035">
        <ele>235.08000102401</ele>
        <time>2016-04-10T07:59:41.000Z</time>
      </trkpt>
      <trkpt lat="43.45504" lon="1.54049">
        <ele>236</ele>
        <time>2016-04-10T07:59:45.000Z</time>
      </trkpt>
      <trkpt lat="43.45498" lon="1.54062">
        <ele>236</ele>
        <time>2016-04-10T07:59:49.000Z</time>
      </trkpt>
      <trkpt lat="43.45493" lon="1.54074">
        <ele>239</ele>
        <time>2016-04-10T07:59:53.000Z</time>
      </trkpt>
      <trkpt lat="43.45486" lon="1.54083">
        <ele>243</ele>
        <time>2016-04-10T07:59:57.000Z</time>
      </trkpt>
      <trkpt lat="43.45479" lon="1.54095">
        <ele>243.53535549436</ele>
        <time>2016-04-10T08:00:01.000Z</time>
      </trkpt>
      <trkpt lat="43.45475" lon="1.54108">
        <ele>243.62000153602</ele>
        <time>2016-04-10T08:00:05.000Z</time>
      </trkpt>
      <trkpt lat="43.45471" lon="1.54121">
        <ele>242</ele>
        <time>2016-04-10T08:00:09.000Z</time>
      </trkpt>
      <trkpt lat="43.45468" lon="1.54135">
        <ele>243</ele>
        <time>2016-04-10T08:00:13.000Z</time>
      </trkpt>
      <trkpt lat="43.45464" lon="1.5415">
        <ele>243</ele>
        <time>2016-04-10T08:00:17.000Z</time>
      </trkpt>
      <trkpt lat="43.4546" lon="1.54161">
        <ele>243</ele>
        <time>2016-04-10T08:00:20.000Z</time>
      </trkpt>
      <trkpt lat="43.45456" lon="1.54173">
        <ele>244</ele>
        <time>2016-04-10T08:00:23.000Z</time>
      </trkpt>
      <trkpt lat="43.45452" lon="1.54183">
        <ele>244</ele>
        <time>2016-04-10T08:00:26.000Z</time>
      </trkpt>
      <trkpt lat="43.45449" lon="1.54194">
        <ele>244</ele>
        <time>2016-04-10T08:00:29.000Z</time>
      </trkpt>
      <trkpt lat="43.45445" lon="1.54205">
        <ele>246</ele>
        <time>2016-04-10T08:00:32.000Z</time>
      </trkpt>
      <trkpt lat="43.45441" lon="1.54215">
        <ele>246</ele>
        <time>2016-04-10T08:00:35.000Z</time>
      </trkpt>
      <trkpt lat="43.45438" lon="1.54228">
        <ele>246</ele>
        <time>2016-04-10T08:00:39.000Z</time>
      </trkpt>
      <trkpt lat="43.45435" lon="1.54244">
        <ele>246</ele>
        <time>2016-04-10T08:00:43.000Z</time>
      </trkpt>
      <trkpt lat="43.4543" lon="1.5426">
        <ele>246</ele>
        <time>2016-04-10T08:00:47.000Z</time>
      </trkpt>
      <trkpt lat="43.45426" lon="1.54272">
        <ele>246</ele>
        <time>2016-04-10T08:00:50.000Z</time>
      </trkpt>
      <trkpt lat="43.4542" lon="1.54286">
        <ele>248</ele>
        <time>2016-04-10T08:00:54.000Z</time>
      </trkpt>
      <trkpt lat="43.45409" lon="1.54288">
        <ele>248</ele>
        <time>2016-04-10T08:00:58.000Z</time>
      </trkpt>
      <trkpt lat="43.45396" lon="1.54284">
        <ele>251.92930285478</ele>
        <time>2016-04-10T08:01:02.000Z</time>
      </trkpt>
      <trkpt lat="43.45385" lon="1.54278">
        <ele>250</ele>
        <time>2016-04-10T08:01:06.000Z</time>
      </trkpt>
      <trkpt lat="43.45374" lon="1.54272">
        <ele>250.92000102399</ele>
        <time>2016-04-10T08:01:10.000Z</time>
      </trkpt>
      <trkpt lat="43.45362" lon="1.54267">
        <ele>255</ele>
        <time>2016-04-10T08:01:14.000Z</time>
      </trkpt>
      <trkpt lat="43.45352" lon="1.54262">
        <ele>255</ele>
        <time>2016-04-10T08:01:18.000Z</time>
      </trkpt>
      <trkpt lat="43.45341" lon="1.54258">
        <ele>254</ele>
        <time>2016-04-10T08:01:22.000Z</time>
      </trkpt>
      <trkpt lat="43.4533" lon="1.54252">
        <ele>254</ele>
        <time>2016-04-10T08:01:26.000Z</time>
      </trkpt>
      <trkpt lat="43.45319" lon="1.54247">
        <ele>254</ele>
        <time>2016-04-10T08:01:30.000Z</time>
      </trkpt>
      <trkpt lat="43.45307" lon="1.54243">
        <ele>252</ele>
        <time>2016-04-10T08:01:34.000Z</time>
      </trkpt>
      <trkpt lat="43.45296" lon="1.54238">
        <ele>252</ele>
        <time>2016-04-10T08:01:38.000Z</time>
      </trkpt>
      <trkpt lat="43.45287" lon="1.54233">
        <ele>253</ele>
        <time>2016-04-10T08:01:42.000Z</time>
      </trkpt>
      <trkpt lat="43.45275" lon="1.54229">
        <ele>253</ele>
        <time>2016-04-10T08:01:47.000Z</time>
      </trkpt>
      <trkpt lat="43.45265" lon="1.54224">
        <ele>253.08000102401</ele>
        <time>2016-04-10T08:01:51.000Z</time>
      </trkpt>
      <trkpt lat="43.45256" lon="1.54219">
        <ele>254</ele>
        <time>2016-04-10T08:01:55.000Z</time>
      </trkpt>
      <trkpt lat="43.45246" lon="1.54214">
        <ele>254</ele>
        <time>2016-04-10T08:01:59.000Z</time>
      </trkpt>
      <trkpt lat="43.45236" lon="1.54208">
        <ele>259.53999948801</ele>
        <time>2016-04-10T08:02:04.000Z</time>
      </trkpt>
      <trkpt lat="43.45224" lon="1.54203">
        <ele>261</ele>
        <time>2016-04-10T08:02:09.000Z</time>
      </trkpt>
      <trkpt lat="43.45213" lon="1.54199">
        <ele>261</ele>
        <time>2016-04-10T08:02:14.000Z</time>
      </trkpt>
      <trkpt lat="43.45203" lon="1.54196">
        <ele>261</ele>
        <time>2016-04-10T08:02:18.000Z</time>
      </trkpt>
      <trkpt lat="43.45193" lon="1.54191">
        <ele>262</ele>
        <time>2016-04-10T08:02:22.000Z</time>
      </trkpt>
      <trkpt lat="43.45183" lon="1.54187">
        <ele>262</ele>
        <time>2016-04-10T08:02:26.000Z</time>
      </trkpt>
      <trkpt lat="43.45172" lon="1.54184">
        <ele>264.67677747178</ele>
        <time>2016-04-10T08:02:31.000Z</time>
      </trkpt>
      <trkpt lat="43.45167" lon="1.54197">
        <ele>268.60396416034</ele>
        <time>2016-04-10T08:02:36.000Z</time>
      </trkpt>
      <trkpt lat="43.45162" lon="1.54213">
        <ele>270.54000051201</ele>
        <time>2016-04-10T08:02:41.000Z</time>
      </trkpt>
      <trkpt lat="43.45158" lon="1.54227">
        <ele>271</ele>
        <time>2016-04-10T08:02:45.000Z</time>
      </trkpt>
      <trkpt lat="43.45156" lon="1.54243">
        <ele>269</ele>
        <time>2016-04-10T08:02:49.000Z</time>
      </trkpt>
      <trkpt lat="43.45152" lon="1.5426">
        <ele>269</ele>
        <time>2016-04-10T08:02:53.000Z</time>
      </trkpt>
      <trkpt lat="43.45148" lon="1.54276">
        <ele>269</ele>
        <time>2016-04-10T08:02:57.000Z</time>
      </trkpt>
      <trkpt lat="43.45144" lon="1.54294">
        <ele>267.39393351693</ele>
        <time>2016-04-10T08:03:01.000Z</time>
      </trkpt>
      <trkpt lat="43.45141" lon="1.5431">
        <ele>266</ele>
        <time>2016-04-10T08:03:05.000Z</time>
      </trkpt>
      <trkpt lat="43.45137" lon="1.54327">
        <ele>269</ele>
        <time>2016-04-10T08:03:09.000Z</time>
      </trkpt>
      <trkpt lat="43.45134" lon="1.54345">
        <ele>267</ele>
        <time>2016-04-10T08:03:13.000Z</time>
      </trkpt>
      <trkpt lat="43.45131" lon="1.54363">
        <ele>267</ele>
        <time>2016-04-10T08:03:17.000Z</time>
      </trkpt>
      <trkpt lat="43.45129" lon="1.54375">
        <ele>267</ele>
        <time>2016-04-10T08:03:20.000Z</time>
      </trkpt>
      <trkpt lat="43.45126" lon="1.54389">
        <ele>266</ele>
        <time>2016-04-10T08:03:23.000Z</time>
      </trkpt>
      <trkpt lat="43.45121" lon="1.54406">
        <ele>266</ele>
        <time>2016-04-10T08:03:27.000Z</time>
      </trkpt>
      <trkpt lat="43.45117" lon="1.5442">
        <ele>266</ele>
        <time>2016-04-10T08:03:30.000Z</time>
      </trkpt>
      <trkpt lat="43.45114" lon="1.54434">
        <ele>265</ele>
        <time>2016-04-10T08:03:33.000Z</time>
      </trkpt>
      <trkpt lat="43.45112" lon="1.54451">
        <ele>265</ele>
        <time>2016-04-10T08:03:37.000Z</time>
      </trkpt>
      <trkpt lat="43.45115" lon="1.54465">
        <ele>263.37999846398</ele>
        <time>2016-04-10T08:03:41.000Z</time>
      </trkpt>
      <trkpt lat="43.45122" lon="1.54477">
        <ele>262</ele>
        <time>2016-04-10T08:03:44.000Z</time>
      </trkpt>
      <trkpt lat="43.4513" lon="1.54488">
        <ele>259</ele>
        <time>2016-04-10T08:03:47.000Z</time>
      </trkpt>
      <trkpt lat="43.45138" lon="1.545">
        <ele>259</ele>
        <time>2016-04-10T08:03:50.000Z</time>
      </trkpt>
      <trkpt lat="43.45147" lon="1.54512">
        <ele>253.91999897599</ele>
        <time>2016-04-10T08:03:53.000Z</time>
      </trkpt>
      <trkpt lat="43.45155" lon="1.54521">
        <ele>250.46464450564</ele>
        <time>2016-04-10T08:03:55.000Z</time>
      </trkpt>
      <trkpt lat="43.45161" lon="1.5453">
        <ele>250</ele>
        <time>2016-04-10T08:03:57.000Z</time>
      </trkpt>
      <trkpt lat="43.45167" lon="1.54539">
        <ele>249.45999948799</ele>
        <time>2016-04-10T08:03:59.000Z</time>
      </trkpt>
      <trkpt lat="43.45173" lon="1.54547">
        <ele>247.32322252822</ele>
        <time>2016-04-10T08:04:01.000Z</time>
      </trkpt>
      <trkpt lat="43.4518" lon="1.54557">
        <ele>247</ele>
        <time>2016-04-10T08:04:03.000Z</time>
      </trkpt>
      <trkpt lat="43.45186" lon="1.54567">
        <ele>246.08000102401</ele>
        <time>2016-04-10T08:04:05.000Z</time>
      </trkpt>
      <trkpt lat="43.45193" lon="1.54578">
        <ele>243.39393351693</ele>
        <time>2016-04-10T08:04:07.000Z</time>
      </trkpt>
      <trkpt lat="43.45199" lon="1.54588">
        <ele>241.45999948799</ele>
        <time>2016-04-10T08:04:09.000Z</time>
      </trkpt>
      <trkpt lat="43.45205" lon="1.54598">
        <ele>238.45999948799</ele>
        <time>2016-04-10T08:04:11.000Z</time>
      </trkpt>
      <trkpt lat="43.45214" lon="1.54612">
        <ele>237.46000051199</ele>
        <time>2016-04-10T08:04:14.000Z</time>
      </trkpt>
      <trkpt lat="43.45223" lon="1.54625">
        <ele>236.54000051201</ele>
        <time>2016-04-10T08:04:17.000Z</time>
      </trkpt>
      <trkpt lat="43.45231" lon="1.54638">
        <ele>236.07999897601</ele>
        <time>2016-04-10T08:04:20.000Z</time>
      </trkpt>
      <trkpt lat="43.45236" lon="1.54647">
        <ele>237</ele>
        <time>2016-04-10T08:04:22.000Z</time>
      </trkpt>
      <trkpt lat="43.45242" lon="1.54655">
        <ele>237</ele>
        <time>2016-04-10T08:04:24.000Z</time>
      </trkpt>
      <trkpt lat="43.45247" lon="1.54663">
        <ele>237</ele>
        <time>2016-04-10T08:04:26.000Z</time>
      </trkpt>
      <trkpt lat="43.45252" lon="1.54672">
        <ele>237</ele>
        <time>2016-04-10T08:04:28.000Z</time>
      </trkpt>
      <trkpt lat="43.45257" lon="1.54681">
        <ele>237</ele>
        <time>2016-04-10T08:04:30.000Z</time>
      </trkpt>
      <trkpt lat="43.45261" lon="1.5469">
        <ele>236</ele>
        <time>2016-04-10T08:04:32.000Z</time>
      </trkpt>
      <trkpt lat="43.45266" lon="1.54698">
        <ele>236</ele>
        <time>2016-04-10T08:04:34.000Z</time>
      </trkpt>
      <trkpt lat="43.45271" lon="1.54707">
        <ele>236</ele>
        <time>2016-04-10T08:04:36.000Z</time>
      </trkpt>
      <trkpt lat="43.45275" lon="1.54717">
        <ele>236</ele>
        <time>2016-04-10T08:04:38.000Z</time>
      </trkpt>
      <trkpt lat="43.4528" lon="1.54725">
        <ele>236</ele>
        <time>2016-04-10T08:04:40.000Z</time>
      </trkpt>
      <trkpt lat="43.45285" lon="1.54734">
        <ele>232</ele>
        <time>2016-04-10T08:04:42.000Z</time>
      </trkpt>
      <trkpt lat="43.4529" lon="1.54743">
        <ele>232</ele>
        <time>2016-04-10T08:04:44.000Z</time>
      </trkpt>
      <trkpt lat="43.45295" lon="1.54752">
        <ele>231.46000051199</ele>
        <time>2016-04-10T08:04:46.000Z</time>
      </trkpt>
      <trkpt lat="43.453" lon="1.5476">
        <ele>231</ele>
        <time>2016-04-10T08:04:48.000Z</time>
      </trkpt>
      <trkpt lat="43.45305" lon="1.54769">
        <ele>231</ele>
        <time>2016-04-10T08:04:50.000Z</time>
      </trkpt>
      <trkpt lat="43.4531" lon="1.54777">
        <ele>232</ele>
        <time>2016-04-10T08:04:52.000Z</time>
      </trkpt>
      <trkpt lat="43.45316" lon="1.54786">
        <ele>232</ele>
        <time>2016-04-10T08:04:54.000Z</time>
      </trkpt>
      <trkpt lat="43.45321" lon="1.54794">
        <ele>232</ele>
        <time>2016-04-10T08:04:56.000Z</time>
      </trkpt>
      <trkpt lat="43.45326" lon="1.54802">
        <ele>232</ele>
        <time>2016-04-10T08:04:58.000Z</time>
      </trkpt>
      <trkpt lat="43.45331" lon="1.5481">
        <ele>232</ele>
        <time>2016-04-10T08:05:00.000Z</time>
      </trkpt>
      <trkpt lat="43.45336" lon="1.54818">
        <ele>231</ele>
        <time>2016-04-10T08:05:02.000Z</time>
      </trkpt>
      <trkpt lat="43.4534" lon="1.54827">
        <ele>231</ele>
        <time>2016-04-10T08:05:04.000Z</time>
      </trkpt>
      <trkpt lat="43.45347" lon="1.54838">
        <ele>231</ele>
        <time>2016-04-10T08:05:07.000Z</time>
      </trkpt>
      <trkpt lat="43.45353" lon="1.5485">
        <ele>231</ele>
        <time>2016-04-10T08:05:10.000Z</time>
      </trkpt>
      <trkpt lat="43.45357" lon="1.54858">
        <ele>232</ele>
        <time>2016-04-10T08:05:12.000Z</time>
      </trkpt>
      <trkpt lat="43.45362" lon="1.54866">
        <ele>232</ele>
        <time>2016-04-10T08:05:14.000Z</time>
      </trkpt>
      <trkpt lat="43.45367" lon="1.54874">
        <ele>232</ele>
        <time>2016-04-10T08:05:16.000Z</time>
      </trkpt>
      <trkpt lat="43.45372" lon="1.54882">
        <ele>232</ele>
        <time>2016-04-10T08:05:18.000Z</time>
      </trkpt>
      <trkpt lat="43.45378" lon="1.54889">
        <ele>232</ele>
        <time>2016-04-10T08:05:20.000Z</time>
      </trkpt>
      <trkpt lat="43.45383" lon="1.54897">
        <ele>231</ele>
        <time>2016-04-10T08:05:22.000Z</time>
      </trkpt>
      <trkpt lat="43.4539" lon="1.54908">
        <ele>231</ele>
        <time>2016-04-10T08:05:25.000Z</time>
      </trkpt>
      <trkpt lat="43.45398" lon="1.5492">
        <ele>231</ele>
        <time>2016-04-10T08:05:28.000Z</time>
      </trkpt>
      <trkpt lat="43.45405" lon="1.54932">
        <ele>230.46464450564</ele>
        <time>2016-04-10T08:05:31.000Z</time>
      </trkpt>
      <trkpt lat="43.4541" lon="1.54941">
        <ele>230</ele>
        <time>2016-04-10T08:05:33.000Z</time>
      </trkpt>
      <trkpt lat="43.45417" lon="1.54953">
        <ele>230</ele>
        <time>2016-04-10T08:05:36.000Z</time>
      </trkpt>
      <trkpt lat="43.45425" lon="1.54964">
        <ele>230</ele>
        <time>2016-04-10T08:05:39.000Z</time>
      </trkpt>
      <trkpt lat="43.45434" lon="1.54972">
        <ele>226</ele>
        <time>2016-04-10T08:05:42.000Z</time>
      </trkpt>
      <trkpt lat="43.45445" lon="1.54979">
        <ele>226</ele>
        <time>2016-04-10T08:05:45.000Z</time>
      </trkpt>
      <trkpt lat="43.45456" lon="1.54983">
        <ele>225</ele>
        <time>2016-04-10T08:05:48.000Z</time>
      </trkpt>
      <trkpt lat="43.45468" lon="1.54989">
        <ele>223.37999846398</ele>
        <time>2016-04-10T08:05:51.000Z</time>
      </trkpt>
      <trkpt lat="43.45478" lon="1.54995">
        <ele>222</ele>
        <time>2016-04-10T08:05:54.000Z</time>
      </trkpt>
      <trkpt lat="43.45488" lon="1.55">
        <ele>220</ele>
        <time>2016-04-10T08:05:57.000Z</time>
      </trkpt>
      <trkpt lat="43.45499" lon="1.55013">
        <ele>220</ele>
        <time>2016-04-10T08:06:00.000Z</time>
      </trkpt>
      <trkpt lat="43.45504" lon="1.55025">
        <ele>217.07999897601</ele>
        <time>2016-04-10T08:06:02.000Z</time>
      </trkpt>
      <trkpt lat="43.45507" lon="1.55038">
        <ele>216.46000051199</ele>
        <time>2016-04-10T08:06:04.000Z</time>
      </trkpt>
      <trkpt lat="43.45511" lon="1.55057">
        <ele>215.92928901129</ele>
        <time>2016-04-10T08:06:07.000Z</time>
      </trkpt>
      <trkpt lat="43.45512" lon="1.55075">
        <ele>215.46000051199</ele>
        <time>2016-04-10T08:06:10.000Z</time>
      </trkpt>
      <trkpt lat="43.45513" lon="1.55092">
        <ele>216</ele>
        <time>2016-04-10T08:06:13.000Z</time>
      </trkpt>
      <trkpt lat="43.45513" lon="1.55109">
        <ele>216</ele>
        <time>2016-04-10T08:06:16.000Z</time>
      </trkpt>
      <trkpt lat="43.45514" lon="1.55125">
        <ele>216</ele>
        <time>2016-04-10T08:06:19.000Z</time>
      </trkpt>
      <trkpt lat="43.45517" lon="1.5514">
        <ele>208.46000051199</ele>
        <time>2016-04-10T08:06:22.000Z</time>
      </trkpt>
      <trkpt lat="43.45524" lon="1.55154">
        <ele>205.53535549436</ele>
        <time>2016-04-10T08:06:25.000Z</time>
      </trkpt>
      <trkpt lat="43.45534" lon="1.55167">
        <ele>203.46000051199</ele>
        <time>2016-04-10T08:06:28.000Z</time>
      </trkpt>
      <trkpt lat="43.45545" lon="1.5518">
        <ele>199.92928901129</ele>
        <time>2016-04-10T08:06:31.000Z</time>
      </trkpt>
      <trkpt lat="43.45554" lon="1.55193">
        <ele>196.92000102399</ele>
        <time>2016-04-10T08:06:34.000Z</time>
      </trkpt>
      <trkpt lat="43.45564" lon="1.55204">
        <ele>195.91999897599</ele>
        <time>2016-04-10T08:06:37.000Z</time>
      </trkpt>
      <trkpt lat="43.45572" lon="1.55216">
        <ele>193.38000153598</ele>
        <time>2016-04-10T08:06:40.000Z</time>
      </trkpt>
      <trkpt lat="43.45579" lon="1.55227">
        <ele>193.45999948799</ele>
        <time>2016-04-10T08:06:43.000Z</time>
      </trkpt>
      <trkpt lat="43.45589" lon="1.55239">
        <ele>192</ele>
        <time>2016-04-10T08:06:46.000Z</time>
      </trkpt>
      <trkpt lat="43.45599" lon="1.55251">
        <ele>191.45999948799</ele>
        <time>2016-04-10T08:06:49.000Z</time>
      </trkpt>
      <trkpt lat="43.4561" lon="1.55261">
        <ele>190</ele>
        <time>2016-04-10T08:06:52.000Z</time>
      </trkpt>
      <trkpt lat="43.45617" lon="1.5527">
        <ele>190</ele>
        <time>2016-04-10T08:06:55.000Z</time>
      </trkpt>
      <trkpt lat="43.45627" lon="1.5528">
        <ele>189</ele>
        <time>2016-04-10T08:06:58.000Z</time>
      </trkpt>
      <trkpt lat="43.45636" lon="1.55289">
        <ele>186.83999795197</ele>
        <time>2016-04-10T08:07:01.000Z</time>
      </trkpt>
      <trkpt lat="43.45647" lon="1.55299">
        <ele>183.46000051199</ele>
        <time>2016-04-10T08:07:04.000Z</time>
      </trkpt>
      <trkpt lat="43.4566" lon="1.55309">
        <ele>181.37999846398</ele>
        <time>2016-04-10T08:07:07.000Z</time>
      </trkpt>
      <trkpt lat="43.45669" lon="1.55315">
        <ele>181.45999948799</ele>
        <time>2016-04-10T08:07:09.000Z</time>
      </trkpt>
      <trkpt lat="43.45678" lon="1.55321">
        <ele>180</ele>
        <time>2016-04-10T08:07:11.000Z</time>
      </trkpt>
      <trkpt lat="43.45689" lon="1.5533">
        <ele>179.53999948801</ele>
        <time>2016-04-10T08:07:14.000Z</time>
      </trkpt>
      <trkpt lat="43.45698" lon="1.55341">
        <ele>179.54000051201</ele>
        <time>2016-04-10T08:07:17.000Z</time>
      </trkpt>
      <trkpt lat="43.457" lon="1.55358">
        <ele>180</ele>
        <time>2016-04-10T08:07:20.000Z</time>
      </trkpt>
      <trkpt lat="43.45697" lon="1.55374">
        <ele>179</ele>
        <time>2016-04-10T08:07:23.000Z</time>
      </trkpt>
      <trkpt lat="43.45692" lon="1.5539">
        <ele>179</ele>
        <time>2016-04-10T08:07:27.000Z</time>
      </trkpt>
      <trkpt lat="43.45688" lon="1.55405">
        <ele>181.16000204803</ele>
        <time>2016-04-10T08:07:31.000Z</time>
      </trkpt>
      <trkpt lat="43.45684" lon="1.55417">
        <ele>183</ele>
        <time>2016-04-10T08:07:35.000Z</time>
      </trkpt>
      <trkpt lat="43.4568" lon="1.55431">
        <ele>185</ele>
        <time>2016-04-10T08:07:39.000Z</time>
      </trkpt>
      <trkpt lat="43.45675" lon="1.55445">
        <ele>185</ele>
        <time>2016-04-10T08:07:43.000Z</time>
      </trkpt>
      <trkpt lat="43.4567" lon="1.55459">
        <ele>186</ele>
        <time>2016-04-10T08:07:47.000Z</time>
      </trkpt>
      <trkpt lat="43.45665" lon="1.55472">
        <ele>187.08000102401</ele>
        <time>2016-04-10T08:07:51.000Z</time>
      </trkpt>
      <trkpt lat="43.45658" lon="1.55486">
        <ele>188</ele>
        <time>2016-04-10T08:07:55.000Z</time>
      </trkpt>
      <trkpt lat="43.45653" lon="1.55498">
        <ele>189</ele>
        <time>2016-04-10T08:07:58.000Z</time>
      </trkpt>
      <trkpt lat="43.45648" lon="1.55509">
        <ele>189</ele>
        <time>2016-04-10T08:08:01.000Z</time>
      </trkpt>
      <trkpt lat="43.45641" lon="1.55523">
        <ele>189</ele>
        <time>2016-04-10T08:08:05.000Z</time>
      </trkpt>
      <trkpt lat="43.45634" lon="1.55537">
        <ele>189</ele>
        <time>2016-04-10T08:08:09.000Z</time>
      </trkpt>
      <trkpt lat="43.45627" lon="1.55551">
        <ele>189</ele>
        <time>2016-04-10T08:08:13.000Z</time>
      </trkpt>
      <trkpt lat="43.45622" lon="1.55563">
        <ele>189</ele>
        <time>2016-04-10T08:08:16.000Z</time>
      </trkpt>
      <trkpt lat="43.45619" lon="1.55577">
        <ele>189</ele>
        <time>2016-04-10T08:08:19.000Z</time>
      </trkpt>
      <trkpt lat="43.45621" lon="1.55591">
        <ele>189</ele>
        <time>2016-04-10T08:08:22.000Z</time>
      </trkpt>
      <trkpt lat="43.45627" lon="1.55604">
        <ele>189</ele>
        <time>2016-04-10T08:08:25.000Z</time>
      </trkpt>
      <trkpt lat="43.45636" lon="1.55616">
        <ele>189</ele>
        <time>2016-04-10T08:08:28.000Z</time>
      </trkpt>
      <trkpt lat="43.45644" lon="1.55628">
        <ele>189.54000051201</ele>
        <time>2016-04-10T08:08:31.000Z</time>
      </trkpt>
      <trkpt lat="43.45651" lon="1.55639">
        <ele>190</ele>
        <time>2016-04-10T08:08:34.000Z</time>
      </trkpt>
      <trkpt lat="43.45659" lon="1.55651">
        <ele>190</ele>
        <time>2016-04-10T08:08:37.000Z</time>
      </trkpt>
      <trkpt lat="43.45665" lon="1.55665">
        <ele>190</ele>
        <time>2016-04-10T08:08:40.000Z</time>
      </trkpt>
      <trkpt lat="43.45671" lon="1.55678">
        <ele>191</ele>
        <time>2016-04-10T08:08:43.000Z</time>
      </trkpt>
      <trkpt lat="43.45676" lon="1.55691">
        <ele>191</ele>
        <time>2016-04-10T08:08:46.000Z</time>
      </trkpt>
      <trkpt lat="43.4568" lon="1.55705">
        <ele>191</ele>
        <time>2016-04-10T08:08:49.000Z</time>
      </trkpt>
      <trkpt lat="43.45684" lon="1.5572">
        <ele>191</ele>
        <time>2016-04-10T08:08:52.000Z</time>
      </trkpt>
      <trkpt lat="43.45688" lon="1.55734">
        <ele>191</ele>
        <time>2016-04-10T08:08:55.000Z</time>
      </trkpt>
      <trkpt lat="43.4569" lon="1.55748">
        <ele>191</ele>
        <time>2016-04-10T08:08:58.000Z</time>
      </trkpt>
      <trkpt lat="43.45694" lon="1.55761">
        <ele>191</ele>
        <time>2016-04-10T08:09:01.000Z</time>
      </trkpt>
      <trkpt lat="43.45695" lon="1.55773">
        <ele>191</ele>
        <time>2016-04-10T08:09:04.000Z</time>
      </trkpt>
      <trkpt lat="43.45685" lon="1.5578">
        <ele>191</ele>
        <time>2016-04-10T08:09:09.000Z</time>
      </trkpt>
      <trkpt lat="43.45673" lon="1.55778">
        <ele>191</ele>
        <time>2016-04-10T08:09:13.000Z</time>
      </trkpt>
      <trkpt lat="43.45661" lon="1.55778">
        <ele>191</ele>
        <time>2016-04-10T08:09:17.000Z</time>
      </trkpt>
      <trkpt lat="43.45649" lon="1.55779">
        <ele>192.08000102401</ele>
        <time>2016-04-10T08:09:21.000Z</time>
      </trkpt>
      <trkpt lat="43.45639" lon="1.55779">
        <ele>193</ele>
        <time>2016-04-10T08:09:25.000Z</time>
      </trkpt>
      <trkpt lat="43.45628" lon="1.55779">
        <ele>193</ele>
        <time>2016-04-10T08:09:29.000Z</time>
      </trkpt>
      <trkpt lat="43.45617" lon="1.55778">
        <ele>195</ele>
        <time>2016-04-10T08:09:33.000Z</time>
      </trkpt>
      <trkpt lat="43.45607" lon="1.55779">
        <ele>197</ele>
        <time>2016-04-10T08:09:37.000Z</time>
      </trkpt>
      <trkpt lat="43.45596" lon="1.55781">
        <ele>197</ele>
        <time>2016-04-10T08:09:40.000Z</time>
      </trkpt>
      <trkpt lat="43.45586" lon="1.55785">
        <ele>200</ele>
        <time>2016-04-10T08:09:43.000Z</time>
      </trkpt>
      <trkpt lat="43.45573" lon="1.55784">
        <ele>200</ele>
        <time>2016-04-10T08:09:47.000Z</time>
      </trkpt>
      <trkpt lat="43.45561" lon="1.5578">
        <ele>200</ele>
        <time>2016-04-10T08:09:51.000Z</time>
      </trkpt>
      <trkpt lat="43.45552" lon="1.55777">
        <ele>200</ele>
        <time>2016-04-10T08:09:54.000Z</time>
      </trkpt>
      <trkpt lat="43.45541" lon="1.55773">
        <ele>200</ele>
        <time>2016-04-10T08:09:57.000Z</time>
      </trkpt>
      <trkpt lat="43.45531" lon="1.55768">
        <ele>200</ele>
        <time>2016-04-10T08:10:00.000Z</time>
      </trkpt>
      <trkpt lat="43.4552" lon="1.55762">
        <ele>201</ele>
        <time>2016-04-10T08:10:04.000Z</time>
      </trkpt>
      <trkpt lat="43.45509" lon="1.55757">
        <ele>201</ele>
        <time>2016-04-10T08:10:07.000Z</time>
      </trkpt>
      <trkpt lat="43.45499" lon="1.5575">
        <ele>201</ele>
        <time>2016-04-10T08:10:10.000Z</time>
      </trkpt>
      <trkpt lat="43.45489" lon="1.55743">
        <ele>203</ele>
        <time>2016-04-10T08:10:13.000Z</time>
      </trkpt>
      <trkpt lat="43.45479" lon="1.55736">
        <ele>203</ele>
        <time>2016-04-10T08:10:16.000Z</time>
      </trkpt>
      <trkpt lat="43.45471" lon="1.55729">
        <ele>203</ele>
        <time>2016-04-10T08:10:19.000Z</time>
      </trkpt>
      <trkpt lat="43.45461" lon="1.55719">
        <ele>205</ele>
        <time>2016-04-10T08:10:23.000Z</time>
      </trkpt>
      <trkpt lat="43.45453" lon="1.55713">
        <ele>205</ele>
        <time>2016-04-10T08:10:26.000Z</time>
      </trkpt>
      <trkpt lat="43.45446" lon="1.55708">
        <ele>205</ele>
        <time>2016-04-10T08:10:29.000Z</time>
      </trkpt>
      <trkpt lat="43.45437" lon="1.55702">
        <ele>207</ele>
        <time>2016-04-10T08:10:32.000Z</time>
      </trkpt>
      <trkpt lat="43.45428" lon="1.55699">
        <ele>207</ele>
        <time>2016-04-10T08:10:35.000Z</time>
      </trkpt>
      <trkpt lat="43.45417" lon="1.55697">
        <ele>207</ele>
        <time>2016-04-10T08:10:39.000Z</time>
      </trkpt>
      <trkpt lat="43.45406" lon="1.55698">
        <ele>209</ele>
        <time>2016-04-10T08:10:43.000Z</time>
      </trkpt>
      <trkpt lat="43.45397" lon="1.55707">
        <ele>210</ele>
        <time>2016-04-10T08:10:47.000Z</time>
      </trkpt>
      <trkpt lat="43.45392" lon="1.55717">
        <ele>210</ele>
        <time>2016-04-10T08:10:50.000Z</time>
      </trkpt>
      <trkpt lat="43.45388" lon="1.55732">
        <ele>212</ele>
        <time>2016-04-10T08:10:54.000Z</time>
      </trkpt>
      <trkpt lat="43.45384" lon="1.55747">
        <ele>215</ele>
        <time>2016-04-10T08:10:58.000Z</time>
      </trkpt>
      <trkpt lat="43.4538" lon="1.55763">
        <ele>213</ele>
        <time>2016-04-10T08:11:02.000Z</time>
      </trkpt>
      <trkpt lat="43.45375" lon="1.55778">
        <ele>213</ele>
        <time>2016-04-10T08:11:06.000Z</time>
      </trkpt>
      <trkpt lat="43.45371" lon="1.55794">
        <ele>213</ele>
        <time>2016-04-10T08:11:10.000Z</time>
      </trkpt>
      <trkpt lat="43.45368" lon="1.55805">
        <ele>215</ele>
        <time>2016-04-10T08:11:13.000Z</time>
      </trkpt>
      <trkpt lat="43.45363" lon="1.55817">
        <ele>215</ele>
        <time>2016-04-10T08:11:16.000Z</time>
      </trkpt>
      <trkpt lat="43.4536" lon="1.55827">
        <ele>215</ele>
        <time>2016-04-10T08:11:19.000Z</time>
      </trkpt>
      <trkpt lat="43.45356" lon="1.55837">
        <ele>216</ele>
        <time>2016-04-10T08:11:22.000Z</time>
      </trkpt>
      <trkpt lat="43.4535" lon="1.5585">
        <ele>216</ele>
        <time>2016-04-10T08:11:26.000Z</time>
      </trkpt>
      <trkpt lat="43.45343" lon="1.55865">
        <ele>216</ele>
        <time>2016-04-10T08:11:30.000Z</time>
      </trkpt>
      <trkpt lat="43.45337" lon="1.55879">
        <ele>219</ele>
        <time>2016-04-10T08:11:34.000Z</time>
      </trkpt>
      <trkpt lat="43.45331" lon="1.55891">
        <ele>218</ele>
        <time>2016-04-10T08:11:37.000Z</time>
      </trkpt>
      <trkpt lat="43.45325" lon="1.55902">
        <ele>218</ele>
        <time>2016-04-10T08:11:40.000Z</time>
      </trkpt>
      <trkpt lat="43.45319" lon="1.55913">
        <ele>218</ele>
        <time>2016-04-10T08:11:43.000Z</time>
      </trkpt>
      <trkpt lat="43.45312" lon="1.55927">
        <ele>218</ele>
        <time>2016-04-10T08:11:47.000Z</time>
      </trkpt>
      <trkpt lat="43.45305" lon="1.55941">
        <ele>219.08000102401</ele>
        <time>2016-04-10T08:11:51.000Z</time>
      </trkpt>
      <trkpt lat="43.45298" lon="1.55951">
        <ele>220</ele>
        <time>2016-04-10T08:11:54.000Z</time>
      </trkpt>
      <trkpt lat="43.45292" lon="1.55961">
        <ele>220</ele>
        <time>2016-04-10T08:11:57.000Z</time>
      </trkpt>
      <trkpt lat="43.45285" lon="1.55971">
        <ele>220</ele>
        <time>2016-04-10T08:12:00.000Z</time>
      </trkpt>
      <trkpt lat="43.45277" lon="1.55981">
        <ele>218</ele>
        <time>2016-04-10T08:12:03.000Z</time>
      </trkpt>
      <trkpt lat="43.4527" lon="1.5599">
        <ele>218</ele>
        <time>2016-04-10T08:12:06.000Z</time>
      </trkpt>
      <trkpt lat="43.45262" lon="1.55999">
        <ele>218</ele>
        <time>2016-04-10T08:12:09.000Z</time>
      </trkpt>
      <trkpt lat="43.45256" lon="1.56013">
        <ele>218</ele>
        <time>2016-04-10T08:12:13.000Z</time>
      </trkpt>
      <trkpt lat="43.45267" lon="1.56023">
        <ele>218</ele>
        <time>2016-04-10T08:12:17.000Z</time>
      </trkpt>
      <trkpt lat="43.45278" lon="1.56031">
        <ele>218</ele>
        <time>2016-04-10T08:12:20.000Z</time>
      </trkpt>
      <trkpt lat="43.45288" lon="1.5604">
        <ele>216</ele>
        <time>2016-04-10T08:12:23.000Z</time>
      </trkpt>
      <trkpt lat="43.45298" lon="1.5605">
        <ele>213.84000204797</ele>
        <time>2016-04-10T08:12:26.000Z</time>
      </trkpt>
      <trkpt lat="43.45308" lon="1.5606">
        <ele>212</ele>
        <time>2016-04-10T08:12:29.000Z</time>
      </trkpt>
      <trkpt lat="43.45315" lon="1.56067">
        <ele>209.29999743997</ele>
        <time>2016-04-10T08:12:31.000Z</time>
      </trkpt>
      <trkpt lat="43.45322" lon="1.56074">
        <ele>205.53464882265</ele>
        <time>2016-04-10T08:12:33.000Z</time>
      </trkpt>
      <trkpt lat="43.45329" lon="1.56082">
        <ele>206</ele>
        <time>2016-04-10T08:12:35.000Z</time>
      </trkpt>
      <trkpt lat="43.45339" lon="1.56092">
        <ele>204</ele>
        <time>2016-04-10T08:12:38.000Z</time>
      </trkpt>
      <trkpt lat="43.45347" lon="1.56103">
        <ele>201</ele>
        <time>2016-04-10T08:12:41.000Z</time>
      </trkpt>
      <trkpt lat="43.45354" lon="1.56111">
        <ele>199.45999948799</ele>
        <time>2016-04-10T08:12:43.000Z</time>
      </trkpt>
      <trkpt lat="43.45364" lon="1.56123">
        <ele>197.46000051199</ele>
        <time>2016-04-10T08:12:46.000Z</time>
      </trkpt>
      <trkpt lat="43.45374" lon="1.56136">
        <ele>195.45999948799</ele>
        <time>2016-04-10T08:12:49.000Z</time>
      </trkpt>
      <trkpt lat="43.45382" lon="1.56148">
        <ele>194</ele>
        <time>2016-04-10T08:12:52.000Z</time>
      </trkpt>
      <trkpt lat="43.45389" lon="1.56163">
        <ele>191.91999897599</ele>
        <time>2016-04-10T08:12:55.000Z</time>
      </trkpt>
      <trkpt lat="43.45396" lon="1.56176">
        <ele>190.92000102399</ele>
        <time>2016-04-10T08:12:58.000Z</time>
      </trkpt>
      <trkpt lat="43.45403" lon="1.56188">
        <ele>187.45999948799</ele>
        <time>2016-04-10T08:13:01.000Z</time>
      </trkpt>
      <trkpt lat="43.45411" lon="1.56201">
        <ele>186</ele>
        <time>2016-04-10T08:13:04.000Z</time>
      </trkpt>
      <trkpt lat="43.4542" lon="1.56213">
        <ele>184</ele>
        <time>2016-04-10T08:13:07.000Z</time>
      </trkpt>
      <trkpt lat="43.45427" lon="1.56228">
        <ele>183.07999897601</ele>
        <time>2016-04-10T08:13:10.000Z</time>
      </trkpt>
      <trkpt lat="43.45431" lon="1.56247">
        <ele>181.54000051201</ele>
        <time>2016-04-10T08:13:13.000Z</time>
      </trkpt>
      <trkpt lat="43.45432" lon="1.56265">
        <ele>181</ele>
        <time>2016-04-10T08:13:16.000Z</time>
      </trkpt>
      <trkpt lat="43.45429" lon="1.56282">
        <ele>181</ele>
        <time>2016-04-10T08:13:19.000Z</time>
      </trkpt>
      <trkpt lat="43.45426" lon="1.56298">
        <ele>182</ele>
        <time>2016-04-10T08:13:22.000Z</time>
      </trkpt>
      <trkpt lat="43.45423" lon="1.56313">
        <ele>182</ele>
        <time>2016-04-10T08:13:25.000Z</time>
      </trkpt>
      <trkpt lat="43.45424" lon="1.56329">
        <ele>182</ele>
        <time>2016-04-10T08:13:29.000Z</time>
      </trkpt>
      <trkpt lat="43.45428" lon="1.5634">
        <ele>182</ele>
        <time>2016-04-10T08:13:32.000Z</time>
      </trkpt>
      <trkpt lat="43.45433" lon="1.56354">
        <ele>182</ele>
        <time>2016-04-10T08:13:36.000Z</time>
      </trkpt>
      <trkpt lat="43.45438" lon="1.56364">
        <ele>182</ele>
        <time>2016-04-10T08:13:39.000Z</time>
      </trkpt>
      <trkpt lat="43.45443" lon="1.56374">
        <ele>183</ele>
        <time>2016-04-10T08:13:42.000Z</time>
      </trkpt>
      <trkpt lat="43.45449" lon="1.56386">
        <ele>183</ele>
        <time>2016-04-10T08:13:46.000Z</time>
      </trkpt>
      <trkpt lat="43.45456" lon="1.56397">
        <ele>183</ele>
        <time>2016-04-10T08:13:50.000Z</time>
      </trkpt>
      <trkpt lat="43.45462" lon="1.56408">
        <ele>187</ele>
        <time>2016-04-10T08:13:54.000Z</time>
      </trkpt>
      <trkpt lat="43.45468" lon="1.56419">
        <ele>189</ele>
        <time>2016-04-10T08:13:58.000Z</time>
      </trkpt>
      <trkpt lat="43.45474" lon="1.56431">
        <ele>192.53999948801</ele>
        <time>2016-04-10T08:14:02.000Z</time>
      </trkpt>
      <trkpt lat="43.45479" lon="1.56443">
        <ele>194</ele>
        <time>2016-04-10T08:14:06.000Z</time>
      </trkpt>
      <trkpt lat="43.45484" lon="1.56455">
        <ele>195</ele>
        <time>2016-04-10T08:14:10.000Z</time>
      </trkpt>
      <trkpt lat="43.45489" lon="1.56467">
        <ele>195</ele>
        <time>2016-04-10T08:14:14.000Z</time>
      </trkpt>
      <trkpt lat="43.45493" lon="1.56481">
        <ele>196</ele>
        <time>2016-04-10T08:14:18.000Z</time>
      </trkpt>
      <trkpt lat="43.45498" lon="1.56493">
        <ele>198</ele>
        <time>2016-04-10T08:14:22.000Z</time>
      </trkpt>
      <trkpt lat="43.45503" lon="1.56505">
        <ele>199.06930944023</ele>
        <time>2016-04-10T08:14:26.000Z</time>
      </trkpt>
      <trkpt lat="43.45508" lon="1.56517">
        <ele>199.46000051199</ele>
        <time>2016-04-10T08:14:30.000Z</time>
      </trkpt>
      <trkpt lat="43.45514" lon="1.56529">
        <ele>199</ele>
        <time>2016-04-10T08:14:34.000Z</time>
      </trkpt>
      <trkpt lat="43.45521" lon="1.56543">
        <ele>199</ele>
        <time>2016-04-10T08:14:39.000Z</time>
      </trkpt>
      <trkpt lat="43.45528" lon="1.56553">
        <ele>203</ele>
        <time>2016-04-10T08:14:43.000Z</time>
      </trkpt>
      <trkpt lat="43.45537" lon="1.56565">
        <ele>205</ele>
        <time>2016-04-10T08:14:48.000Z</time>
      </trkpt>
      <trkpt lat="43.45543" lon="1.56575">
        <ele>206</ele>
        <time>2016-04-10T08:14:52.000Z</time>
      </trkpt>
      <trkpt lat="43.4555" lon="1.56585">
        <ele>207.07999897601</ele>
        <time>2016-04-10T08:14:56.000Z</time>
      </trkpt>
      <trkpt lat="43.45556" lon="1.56596">
        <ele>208</ele>
        <time>2016-04-10T08:15:00.000Z</time>
      </trkpt>
      <trkpt lat="43.45561" lon="1.56607">
        <ele>209</ele>
        <time>2016-04-10T08:15:04.000Z</time>
      </trkpt>
      <trkpt lat="43.45569" lon="1.56617">
        <ele>210</ele>
        <time>2016-04-10T08:15:08.000Z</time>
      </trkpt>
      <trkpt lat="43.45577" lon="1.56627">
        <ele>211</ele>
        <time>2016-04-10T08:15:12.000Z</time>
      </trkpt>
      <trkpt lat="43.45586" lon="1.56637">
        <ele>210.46000051199</ele>
        <time>2016-04-10T08:15:16.000Z</time>
      </trkpt>
      <trkpt lat="43.45597" lon="1.56647">
        <ele>210</ele>
        <time>2016-04-10T08:15:20.000Z</time>
      </trkpt>
      <trkpt lat="43.45605" lon="1.56653">
        <ele>208</ele>
        <time>2016-04-10T08:15:22.000Z</time>
      </trkpt>
      <trkpt lat="43.45611" lon="1.56658">
        <ele>208</ele>
        <time>2016-04-10T08:15:24.000Z</time>
      </trkpt>
      <trkpt lat="43.45618" lon="1.56665">
        <ele>207.46000051199</ele>
        <time>2016-04-10T08:15:26.000Z</time>
      </trkpt>
      <trkpt lat="43.45625" lon="1.56671">
        <ele>207</ele>
        <time>2016-04-10T08:15:28.000Z</time>
      </trkpt>
      <trkpt lat="43.45636" lon="1.5668">
        <ele>205.37999846398</ele>
        <time>2016-04-10T08:15:31.000Z</time>
      </trkpt>
      <trkpt lat="43.45645" lon="1.56686">
        <ele>204</ele>
        <time>2016-04-10T08:15:33.000Z</time>
      </trkpt>
      <trkpt lat="43.45652" lon="1.56693">
        <ele>204</ele>
        <time>2016-04-10T08:15:35.000Z</time>
      </trkpt>
      <trkpt lat="43.4566" lon="1.56699">
        <ele>201</ele>
        <time>2016-04-10T08:15:37.000Z</time>
      </trkpt>
      <trkpt lat="43.45667" lon="1.56706">
        <ele>201</ele>
        <time>2016-04-10T08:15:39.000Z</time>
      </trkpt>
      <trkpt lat="43.45675" lon="1.56712">
        <ele>200.45999948799</ele>
        <time>2016-04-10T08:15:41.000Z</time>
      </trkpt>
      <trkpt lat="43.45682" lon="1.56719">
        <ele>200</ele>
        <time>2016-04-10T08:15:43.000Z</time>
      </trkpt>
      <trkpt lat="43.45689" lon="1.56725">
        <ele>200</ele>
        <time>2016-04-10T08:15:45.000Z</time>
      </trkpt>
      <trkpt lat="43.45696" lon="1.56731">
        <ele>200</ele>
        <time>2016-04-10T08:15:47.000Z</time>
      </trkpt>
      <trkpt lat="43.45703" lon="1.56738">
        <ele>200</ele>
        <time>2016-04-10T08:15:49.000Z</time>
      </trkpt>
      <trkpt lat="43.4571" lon="1.56745">
        <ele>198.91999897599</ele>
        <time>2016-04-10T08:15:51.000Z</time>
      </trkpt>
      <trkpt lat="43.45716" lon="1.56752">
        <ele>198</ele>
        <time>2016-04-10T08:15:53.000Z</time>
      </trkpt>
      <trkpt lat="43.45722" lon="1.56759">
        <ele>198</ele>
        <time>2016-04-10T08:15:55.000Z</time>
      </trkpt>
      <trkpt lat="43.45729" lon="1.56766">
        <ele>198</ele>
        <time>2016-04-10T08:15:57.000Z</time>
      </trkpt>
      <trkpt lat="43.45735" lon="1.56773">
        <ele>198</ele>
        <time>2016-04-10T08:15:59.000Z</time>
      </trkpt>
      <trkpt lat="43.45741" lon="1.56781">
        <ele>196.91999897599</ele>
        <time>2016-04-10T08:16:01.000Z</time>
      </trkpt>
      <trkpt lat="43.45747" lon="1.56788">
        <ele>196</ele>
        <time>2016-04-10T08:16:03.000Z</time>
      </trkpt>
      <trkpt lat="43.45753" lon="1.56796">
        <ele>196</ele>
        <time>2016-04-10T08:16:05.000Z</time>
      </trkpt>
      <trkpt lat="43.45761" lon="1.56808">
        <ele>196</ele>
        <time>2016-04-10T08:16:08.000Z</time>
      </trkpt>
      <trkpt lat="43.45769" lon="1.5682">
        <ele>195.45999948799</ele>
        <time>2016-04-10T08:16:11.000Z</time>
      </trkpt>
      <trkpt lat="43.45775" lon="1.56828">
        <ele>195</ele>
        <time>2016-04-10T08:16:13.000Z</time>
      </trkpt>
      <trkpt lat="43.45783" lon="1.56841">
        <ele>195</ele>
        <time>2016-04-10T08:16:16.000Z</time>
      </trkpt>
      <trkpt lat="43.45788" lon="1.5685">
        <ele>195</ele>
        <time>2016-04-10T08:16:18.000Z</time>
      </trkpt>
      <trkpt lat="43.45794" lon="1.56857">
        <ele>195</ele>
        <time>2016-04-10T08:16:20.000Z</time>
      </trkpt>
      <trkpt lat="43.45802" lon="1.56869">
        <ele>194</ele>
        <time>2016-04-10T08:16:23.000Z</time>
      </trkpt>
      <trkpt lat="43.4581" lon="1.56881">
        <ele>194</ele>
        <time>2016-04-10T08:16:26.000Z</time>
      </trkpt>
      <trkpt lat="43.45816" lon="1.56889">
        <ele>194</ele>
        <time>2016-04-10T08:16:28.000Z</time>
      </trkpt>
      <trkpt lat="43.45822" lon="1.56898">
        <ele>194</ele>
        <time>2016-04-10T08:16:30.000Z</time>
      </trkpt>
      <trkpt lat="43.45826" lon="1.56913">
        <ele>192</ele>
        <time>2016-04-10T08:16:33.000Z</time>
      </trkpt>
      <trkpt lat="43.45824" lon="1.56929">
        <ele>192</ele>
        <time>2016-04-10T08:16:36.000Z</time>
      </trkpt>
      <trkpt lat="43.45818" lon="1.56944">
        <ele>192</ele>
        <time>2016-04-10T08:16:39.000Z</time>
      </trkpt>
      <trkpt lat="43.45813" lon="1.56959">
        <ele>192</ele>
        <time>2016-04-10T08:16:42.000Z</time>
      </trkpt>
      <trkpt lat="43.45808" lon="1.56974">
        <ele>192</ele>
        <time>2016-04-10T08:16:45.000Z</time>
      </trkpt>
      <trkpt lat="43.45803" lon="1.56988">
        <ele>192</ele>
        <time>2016-04-10T08:16:48.000Z</time>
      </trkpt>
      <trkpt lat="43.45799" lon="1.57002">
        <ele>190.91999897599</ele>
        <time>2016-04-10T08:16:51.000Z</time>
      </trkpt>
      <trkpt lat="43.45797" lon="1.57017">
        <ele>190</ele>
        <time>2016-04-10T08:16:54.000Z</time>
      </trkpt>
      <trkpt lat="43.45796" lon="1.57036">
        <ele>190</ele>
        <time>2016-04-10T08:16:58.000Z</time>
      </trkpt>
      <trkpt lat="43.45798" lon="1.5705">
        <ele>188.39393351693</ele>
        <time>2016-04-10T08:17:01.000Z</time>
      </trkpt>
      <trkpt lat="43.45801" lon="1.57064">
        <ele>187</ele>
        <time>2016-04-10T08:17:04.000Z</time>
      </trkpt>
      <trkpt lat="43.45805" lon="1.5708">
        <ele>189</ele>
        <time>2016-04-10T08:17:07.000Z</time>
      </trkpt>
      <trkpt lat="43.45799" lon="1.57092">
        <ele>189</ele>
        <time>2016-04-10T08:17:10.000Z</time>
      </trkpt>
      <trkpt lat="43.45788" lon="1.57103">
        <ele>192</ele>
        <time>2016-04-10T08:17:14.000Z</time>
      </trkpt>
      <trkpt lat="43.45775" lon="1.57114">
        <ele>192</ele>
        <time>2016-04-10T08:17:17.000Z</time>
      </trkpt>
      <trkpt lat="43.45766" lon="1.57122">
        <ele>192</ele>
        <time>2016-04-10T08:17:20.000Z</time>
      </trkpt>
      <trkpt lat="43.45758" lon="1.57131">
        <ele>192</ele>
        <time>2016-04-10T08:17:23.000Z</time>
      </trkpt>
      <trkpt lat="43.45749" lon="1.57144">
        <ele>192</ele>
        <time>2016-04-10T08:17:27.000Z</time>
      </trkpt>
      <trkpt lat="43.45742" lon="1.57156">
        <ele>192</ele>
        <time>2016-04-10T08:17:31.000Z</time>
      </trkpt>
      <trkpt lat="43.45735" lon="1.5717">
        <ele>192</ele>
        <time>2016-04-10T08:17:35.000Z</time>
      </trkpt>
      <trkpt lat="43.45727" lon="1.57182">
        <ele>192</ele>
        <time>2016-04-10T08:17:39.000Z</time>
      </trkpt>
      <trkpt lat="43.45721" lon="1.57194">
        <ele>195</ele>
        <time>2016-04-10T08:17:43.000Z</time>
      </trkpt>
      <trkpt lat="43.45717" lon="1.57207">
        <ele>197</ele>
        <time>2016-04-10T08:17:47.000Z</time>
      </trkpt>
      <trkpt lat="43.45711" lon="1.57221">
        <ele>197</ele>
        <time>2016-04-10T08:17:51.000Z</time>
      </trkpt>
      <trkpt lat="43.45706" lon="1.57234">
        <ele>197</ele>
        <time>2016-04-10T08:17:55.000Z</time>
      </trkpt>
      <trkpt lat="43.45701" lon="1.57249">
        <ele>197</ele>
        <time>2016-04-10T08:17:58.000Z</time>
      </trkpt>
      <trkpt lat="43.45696" lon="1.57263">
        <ele>198.07071098871</ele>
        <time>2016-04-10T08:18:01.000Z</time>
      </trkpt>
      <trkpt lat="43.45689" lon="1.57277">
        <ele>199</ele>
        <time>2016-04-10T08:18:05.000Z</time>
      </trkpt>
      <trkpt lat="43.45681" lon="1.57288">
        <ele>198</ele>
        <time>2016-04-10T08:18:08.000Z</time>
      </trkpt>
      <trkpt lat="43.45676" lon="1.57294">
        <ele>198</ele>
        <time>2016-04-10T08:18:10.000Z</time>
      </trkpt>
      <trkpt lat="43.45674" lon="1.57307">
        <ele>197</ele>
        <time>2016-04-10T08:18:13.000Z</time>
      </trkpt>
      <trkpt lat="43.45681" lon="1.57319">
        <ele>197</ele>
        <time>2016-04-10T08:18:16.000Z</time>
      </trkpt>
      <trkpt lat="43.4569" lon="1.57329">
        <ele>197</ele>
        <time>2016-04-10T08:18:19.000Z</time>
      </trkpt>
      <trkpt lat="43.457" lon="1.57339">
        <ele>199</ele>
        <time>2016-04-10T08:18:22.000Z</time>
      </trkpt>
      <trkpt lat="43.4571" lon="1.57349">
        <ele>199</ele>
        <time>2016-04-10T08:18:25.000Z</time>
      </trkpt>
      <trkpt lat="43.45721" lon="1.57359">
        <ele>199</ele>
        <time>2016-04-10T08:18:28.000Z</time>
      </trkpt>
      <trkpt lat="43.4573" lon="1.57365">
        <ele>199</ele>
        <time>2016-04-10T08:18:31.000Z</time>
      </trkpt>
      <trkpt lat="43.45741" lon="1.57364">
        <ele>199</ele>
        <time>2016-04-10T08:18:34.000Z</time>
      </trkpt>
      <trkpt lat="43.4575" lon="1.57353">
        <ele>199</ele>
        <time>2016-04-10T08:18:37.000Z</time>
      </trkpt>
      <trkpt lat="43.45758" lon="1.57343">
        <ele>199</ele>
        <time>2016-04-10T08:18:40.000Z</time>
      </trkpt>
      <trkpt lat="43.45766" lon="1.57333">
        <ele>197</ele>
        <time>2016-04-10T08:18:43.000Z</time>
      </trkpt>
      <trkpt lat="43.45774" lon="1.57319">
        <ele>197</ele>
        <time>2016-04-10T08:18:47.000Z</time>
      </trkpt>
      <trkpt lat="43.45782" lon="1.57308">
        <ele>197</ele>
        <time>2016-04-10T08:18:50.000Z</time>
      </trkpt>
      <trkpt lat="43.45792" lon="1.573">
        <ele>197</ele>
        <time>2016-04-10T08:18:53.000Z</time>
      </trkpt>
      <trkpt lat="43.45801" lon="1.57291">
        <ele>197</ele>
        <time>2016-04-10T08:18:56.000Z</time>
      </trkpt>
      <trkpt lat="43.4581" lon="1.57284">
        <ele>197</ele>
        <time>2016-04-10T08:18:59.000Z</time>
      </trkpt>
      <trkpt lat="43.45821" lon="1.57279">
        <ele>195</ele>
        <time>2016-04-10T08:19:02.000Z</time>
      </trkpt>
      <trkpt lat="43.45833" lon="1.57282">
        <ele>195</ele>
        <time>2016-04-10T08:19:05.000Z</time>
      </trkpt>
      <trkpt lat="43.45845" lon="1.57291">
        <ele>196</ele>
        <time>2016-04-10T08:19:08.000Z</time>
      </trkpt>
      <trkpt lat="43.45853" lon="1.57303">
        <ele>196.54000051201</ele>
        <time>2016-04-10T08:19:11.000Z</time>
      </trkpt>
      <trkpt lat="43.45862" lon="1.57316">
        <ele>197</ele>
        <time>2016-04-10T08:19:14.000Z</time>
      </trkpt>
      <trkpt lat="43.45864" lon="1.57332">
        <ele>197</ele>
        <time>2016-04-10T08:19:17.000Z</time>
      </trkpt>
      <trkpt lat="43.45857" lon="1.57347">
        <ele>197</ele>
        <time>2016-04-10T08:19:19.000Z</time>
      </trkpt>
      <trkpt lat="43.4585" lon="1.57358">
        <ele>196.45999948799</ele>
        <time>2016-04-10T08:19:21.000Z</time>
      </trkpt>
      <trkpt lat="43.45839" lon="1.57369">
        <ele>196</ele>
        <time>2016-04-10T08:19:25.000Z</time>
      </trkpt>
      <trkpt lat="43.4583" lon="1.5738">
        <ele>196</ele>
        <time>2016-04-10T08:19:28.000Z</time>
      </trkpt>
      <trkpt lat="43.45819" lon="1.57388">
        <ele>195.46464450564</ele>
        <time>2016-04-10T08:19:31.000Z</time>
      </trkpt>
      <trkpt lat="43.45807" lon="1.57396">
        <ele>195</ele>
        <time>2016-04-10T08:19:34.000Z</time>
      </trkpt>
      <trkpt lat="43.45798" lon="1.57407">
        <ele>195</ele>
        <time>2016-04-10T08:19:37.000Z</time>
      </trkpt>
      <trkpt lat="43.4579" lon="1.57419">
        <ele>195</ele>
        <time>2016-04-10T08:19:40.000Z</time>
      </trkpt>
      <trkpt lat="43.45785" lon="1.57428">
        <ele>196</ele>
        <time>2016-04-10T08:19:42.000Z</time>
      </trkpt>
      <trkpt lat="43.45782" lon="1.57438">
        <ele>196</ele>
        <time>2016-04-10T08:19:44.000Z</time>
      </trkpt>
      <trkpt lat="43.4578" lon="1.57448">
        <ele>196</ele>
        <time>2016-04-10T08:19:46.000Z</time>
      </trkpt>
      <trkpt lat="43.45782" lon="1.57463">
        <ele>196</ele>
        <time>2016-04-10T08:19:49.000Z</time>
      </trkpt>
      <trkpt lat="43.4578" lon="1.57477">
        <ele>197</ele>
        <time>2016-04-10T08:19:52.000Z</time>
      </trkpt>
    </trkseg>
  </trk>
</gpx>